Observation data for Junction on 02/14/2020      Previous  Date  Next       Current Mesonet Observations  Soil Data  Daily Summary Page  Observations in Plain Language
KJU1 140600Z 05005KT 02/01 A3035 RMK A01 T00220005  RH  088%=      5-min Rain = 0
KJU1 140601Z 04005KT 02/01 A3035 RMK A01 T00220005  RH  088%=      5-min Rain = 0
KJU1 140602Z 04005KT 02/00 A3035 RMK A01 T00220004  RH  088%=      5-min Rain = 0
KJU1 140603Z 04005KT 02/00 A3035 RMK A01 T00210004  RH  088%=      5-min Rain = 0
KJU1 140604Z 05004KT 02/00 A3035 RMK A01 T00210004  RH  089%=      5-min Rain = 0
KJU1 140605Z 06003KT 02/00 A3035 RMK A01 T00210004  RH  089%=      5-min Rain = 0
KJU1 140606Z 05004KT 02/00 A3035 RMK A01 T00200004  RH  089%=      5-min Rain = 0
KJU1 140607Z 04005KT 02/00 A3035 RMK A01 T00200004  RH  089%=      5-min Rain = 0
KJU1 140608Z 05004KT 02/00 A3035 RMK A01 T00200003  RH  089%=      5-min Rain = 0
KJU1 140609Z 04005KT 02/00 A3035 RMK A01 T00200004  RH  089%=      5-min Rain = 0
KJU1 140610Z 05004KT 02/00 A3035 RMK A01 T00200004  RH  089%=      5-min Rain = 0
KJU1 140611Z 05004KT 02/00 A3035 RMK A01 T00210004  RH  089%=      5-min Rain = 0
KJU1 140612Z 04005KT 02/00 A3035 RMK A01 T00200003  RH  089%=      5-min Rain = 0
KJU1 140613Z 04004KT 02/00 A3035 RMK A01 T00200003  RH  089%=      5-min Rain = 0
KJU1 140614Z 04004KT 02/00 A3035 RMK A01 T00200004  RH  089%=      5-min Rain = 0
KJU1 140615Z 05005KT 02/00 A3035 RMK A01 T00200003  RH  089%=      5-min Rain = 0
KJU1 140616Z 04004KT 02/00 A3035 RMK A01 T00190004  RH  089%=      5-min Rain = 0
KJU1 140617Z 05005KT 02/00 A3035 RMK A01 T00200004  RH  090%=      5-min Rain = 0
KJU1 140618Z 05004KT 02/00 A3035 RMK A01 T00200004  RH  089%=      5-min Rain = 0
KJU1 140619Z 05004KT 02/00 A3035 RMK A01 T00200004  RH  089%=      5-min Rain = 0
KJU1 140620Z 05004KT 02/00 A3035 RMK A01 T00200003  RH  089%=      5-min Rain = 0
KJU1 140621Z 05005KT 02/00 A3035 RMK A01 T00190003  RH  089%=      5-min Rain = 0
KJU1 140622Z 05005KT 02/00 A3035 RMK A01 T00190003  RH  089%=      5-min Rain = 0
KJU1 140623Z 04004KT 02/00 A3035 RMK A01 T00190004  RH  089%=      5-min Rain = 0
KJU1 140624Z 03005KT 02/00 A3035 RMK A01 T00190003  RH  089%=      5-min Rain = 0
KJU1 140625Z 04004KT 02/00 A3035 RMK A01 T00190004  RH  090%=      5-min Rain = 0
KJU1 140626Z 04004KT 02/00 A3035 RMK A01 T00190003  RH  090%=      5-min Rain = 0
KJU1 140627Z 04003KT 02/00 A3035 RMK A01 T00180002  RH  089%=      5-min Rain = 0
KJU1 140628Z 03003KT 02/00 A3035 RMK A01 T00180002  RH  089%=      5-min Rain = 0
KJU1 140629Z 03004KT 02/00 A3035 RMK A01 T00170001  RH  090%=      5-min Rain = 0
KJU1 140630Z 03005KT 02/00 A3035 RMK A01 T00170003  RH  090%=      5-min Rain = 0
KJU1 140631Z 03004KT 02/00 A3035 RMK A01 T00170003  RH  090%=      5-min Rain = 0
KJU1 140632Z 04005KT 02/00 A3035 RMK A01 T00170003  RH  090%=      5-min Rain = 0
KJU1 140633Z 03005KT 02/00 A3035 RMK A01 T00170003  RH  090%=      5-min Rain = 0
KJU1 140634Z 04005KT 02/00 A3035 RMK A01 T00170003  RH  090%=      5-min Rain = 0
KJU1 140635Z 03005KT 02/00 A3035 RMK A01 T00170003  RH  090%=      5-min Rain = 0
KJU1 140636Z 03005KT 02/00 A3035 RMK A01 T00170003  RH  090%=      5-min Rain = 0
KJU1 140637Z 03004KT 02/00 A3035 RMK A01 T00170003  RH  090%=      5-min Rain = 0
KJU1 140638Z 05004KT 02/00 A3035 RMK A01 T00180003  RH  090%=      5-min Rain = 0
KJU1 140639Z 06004KT 02/00 A3035 RMK A01 T00170003  RH  090%=      5-min Rain = 0
KJU1 140640Z 05005KT 02/00 A3035 RMK A01 T00170002  RH  090%=      5-min Rain = 0
KJU1 140641Z 04004KT 02/00 A3035 RMK A01 T00170002  RH  090%=      5-min Rain = 0
KJU1 140642Z 03005KT 02/00 A3035 RMK A01 T00160002  RH  090%=      5-min Rain = 0
KJU1 140643Z 04005KT 02/00 A3035 RMK A01 T00170003  RH  090%=      5-min Rain = 0
KJU1 140644Z 04005KT 02/00 A3035 RMK A01 T00160002  RH  090%=      5-min Rain = 0
KJU1 140645Z 04005KT 02/00 A3035 RMK A01 T00160001  RH  090%=      5-min Rain = 0
KJU1 140646Z 04005KT 02/00 A3035 RMK A01 T00160002  RH  091%=      5-min Rain = 0
KJU1 140647Z 05005KT 02/00 A3035 RMK A01 T00160002  RH  091%=      5-min Rain = 0
KJU1 140648Z 05005KT 02/00 A3035 RMK A01 T00160002  RH  091%=      5-min Rain = 0
KJU1 140649Z 05004KT 02/00 A3035 RMK A01 T00160002  RH  091%=      5-min Rain = 0
KJU1 140650Z 03004KT 02/00 A3035 RMK A01 T00150001  RH  090%=      5-min Rain = 0
KJU1 140651Z 05006KT 02/00 A3035 RMK A01 T00150001  RH  091%=      5-min Rain = 0
KJU1 140652Z 04004KT 02/00 A3035 RMK A01 T00150002  RH  091%=      5-min Rain = 0
KJU1 140653Z 03004KT 02/00 A3035 RMK A01 T00150002  RH  091%=      5-min Rain = 0
KJU1 140654Z 04004KT 02/00 A3035 RMK A01 T00150002  RH  091%=      5-min Rain = 0
KJU1 140655Z 04004KT 02/00 A3035 RMK A01 T00160002  RH  091%=      5-min Rain = 0
KJU1 140656Z 04004KT 02/00 A3035 RMK A01 T00160002  RH  091%=      5-min Rain = 0
KJU1 140657Z 03004KT 02/00 A3035 RMK A01 T00150002  RH  091%=      5-min Rain = 0
KJU1 140658Z 03005KT 02/00 A3035 RMK A01 T00160002  RH  091%=      5-min Rain = 0
KJU1 140659Z 03006KT 02/00 A3036 RMK A01 T00160002  RH  091%=      5-min Rain = 0
KJU1 140700Z 04006KT 02/00 A3036 RMK A01 T00160003  RH  091%=      5-min Rain = 0
KJU1 140701Z 03005KT 02/00 A3035 RMK A01 T00160002  RH  091%=      5-min Rain = 0
KJU1 140702Z 03005KT 02/00 A3035 RMK A01 T00160003  RH  091%=      5-min Rain = 0
KJU1 140703Z 03006KT 02/00 A3035 RMK A01 T00160003  RH  091%=      5-min Rain = 0
KJU1 140704Z 04004KT 02/00 A3035 RMK A01 T00160003  RH  091%=      5-min Rain = 0
KJU1 140705Z 04006KT 02/00 A3035 RMK A01 T00160003  RH  091%=      5-min Rain = 0
KJU1 140706Z 05005KT 02/00 A3035 RMK A01 T00160003  RH  091%=      5-min Rain = 0
KJU1 140707Z 04006KT 02/00 A3035 RMK A01 T00160003  RH  091%=      5-min Rain = 0
KJU1 140708Z 04005KT 02/00 A3035 RMK A01 T00160003  RH  091%=      5-min Rain = 0
KJU1 140709Z 05008KT 02/00 A3035 RMK A01 T00160003  RH  091%=      5-min Rain = 0
KJU1 140710Z 06006KT 02/00 A3035 RMK A01 T00160002  RH  090%=      5-min Rain = 0
KJU1 140711Z 03006KT 02/00 A3035 RMK A01 T00170003  RH  090%=      5-min Rain = 0
KJU1 140712Z 04007KT 02/00 A3035 RMK A01 T00170002  RH  090%=      5-min Rain = 0
KJU1 140713Z 05009KT 02/00 A3035 RMK A01 T00170002  RH  090%=      5-min Rain = 0
KJU1 140714Z 05007KT 02/00 A3035 RMK A01 T00170002  RH  090%=      5-min Rain = 0
KJU1 140715Z 06011KT 02/00 A3035 RMK A01 T00170002  RH  090%=      5-min Rain = 0
KJU1 140716Z 06007KT 02/00 A3035 RMK A01 T00170002  RH  090%=      5-min Rain = 0
KJU1 140717Z 05007KT 02/00 A3035 RMK A01 T00170001  RH  089%=      5-min Rain = 0
KJU1 140718Z 05007KT 02/00 A3035 RMK A01 T00170001  RH  089%=      5-min Rain = 0
KJU1 140719Z 06010KT 02/00 A3035 RMK A01 T00170001  RH  089%=      5-min Rain = 0
KJU1 140720Z 05009KT 02/00 A3035 RMK A01 T00170001  RH  089%=      5-min Rain = 0
KJU1 140721Z 05007KT 02/00 A3035 RMK A01 T00170000  RH  089%=      5-min Rain = 0
KJU1 140722Z 04007KT 02/00 A3035 RMK A01 T00170001  RH  089%=      5-min Rain = 0
KJU1 140723Z 05009KT 02/00 A3035 RMK A01 T00170001  RH  089%=      5-min Rain = 0
KJU1 140724Z 06011KT 02/00 A3035 RMK A01 T00170001  RH  089%=      5-min Rain = 0
KJU1 140725Z 06009KT 02/00 A3035 RMK A01 T00170001  RH  089%=      5-min Rain = 0
KJU1 140726Z 04008KT 02/00 A3035 RMK A01 T00170001  RH  089%=      5-min Rain = 0
KJU1 140727Z 05008KT 02/00 A3035 RMK A01 T00170001  RH  089%=      5-min Rain = 0
KJU1 140728Z 05007KT 02/00 A3035 RMK A01 T00170001  RH  089%=      5-min Rain = 0
KJU1 140729Z 06009KT 02/00 A3035 RMK A01 T00180002  RH  089%=      5-min Rain = 0
KJU1 140730Z 06008KT 02/00 A3035 RMK A01 T00170001  RH  089%=      5-min Rain = 0
KJU1 140731Z 06006KT 02/00 A3035 RMK A01 T00170001  RH  089%=      5-min Rain = 0
KJU1 140732Z 05006KT 02/00 A3035 RMK A01 T00170001  RH  089%=      5-min Rain = 0
KJU1 140733Z 05008KT 02/00 A3035 RMK A01 T00170001  RH  089%=      5-min Rain = 0
KJU1 140734Z 06009KT 02/00 A3035 RMK A01 T00180001  RH  089%=      5-min Rain = 0
KJU1 140735Z 06008KT 02/00 A3035 RMK A01 T00170001  RH  089%=      5-min Rain = 0
KJU1 140736Z 05007KT 02/00 A3035 RMK A01 T00170001  RH  089%=      5-min Rain = 0
KJU1 140737Z 05007KT 02/00 A3035 RMK A01 T00170000  RH  089%=      5-min Rain = 0
KJU1 140738Z 06007KT 02/00 A3036 RMK A01 T00170000  RH  089%=      5-min Rain = 0
KJU1 140739Z 06006KT 02/00 A3036 RMK A01 T00170000  RH  089%=      5-min Rain = 0
KJU1 140740Z 06006KT 02/00 A3036 RMK A01 T00170000  RH  089%=      5-min Rain = 0
KJU1 140741Z 06006KT 02/00 A3036 RMK A01 T00170000  RH  089%=      5-min Rain = 0
KJU1 140742Z 08005KT 02/00 A3036 RMK A01 T001700-0  RH  088%=      5-min Rain = 0
KJU1 140743Z 07005KT 02/M00 A3036 RMK A01 T00161001  RH  088%=      5-min Rain = 0
KJU1 140744Z 08005KT 02/M00 A3036 RMK A01 T00171001  RH  088%=      5-min Rain = 0
KJU1 140745Z 06007KT 02/M00 A3036 RMK A01 T00161002  RH  088%=      5-min Rain = 0
KJU1 140746Z 06006KT 02/M00 A3036 RMK A01 T00171002  RH  088%=      5-min Rain = 0
KJU1 140747Z 05006KT 02/M00 A3036 RMK A01 T00171002  RH  087%=      5-min Rain = 0
KJU1 140748Z 05007KT 02/M00 A3036 RMK A01 T00161003  RH  087%=      5-min Rain = 0
KJU1 140749Z 06009KT 02/M00 A3036 RMK A01 T00161003  RH  087%=      5-min Rain = 0
KJU1 140750Z 07007KT 02/M00 A3036 RMK A01 T00161003  RH  087%=      5-min Rain = 0
KJU1 140751Z 06007KT 02/M00 A3037 RMK A01 T00161003  RH  087%=      5-min Rain = 0
KJU1 140752Z 06008KT 02/M00 A3037 RMK A01 T00161003  RH  087%=      5-min Rain = 0
KJU1 140753Z 08008KT 02/M00 A3037 RMK A01 T00161003  RH  087%=      5-min Rain = 0
KJU1 140754Z 07004KT 02/M00 A3037 RMK A01 T00161003  RH  087%=      5-min Rain = 0
KJU1 140755Z 06005KT 02/M00 A3037 RMK A01 T00161003  RH  087%=      5-min Rain = 0
KJU1 140756Z 05005KT 02/M00 A3037 RMK A01 T00161003  RH  087%=      5-min Rain = 0
KJU1 140757Z 05007KT 02/M00 A3037 RMK A01 T00161003  RH  087%=      5-min Rain = 0
KJU1 140758Z 06005KT 02/M00 A3037 RMK A01 T00151004  RH  087%=      5-min Rain = 0
KJU1 140759Z 06006KT 02/M00 A3037 RMK A01 T00161004  RH  087%=      5-min Rain = 0
KJU1 140800Z 08008KT 02/M00 A3037 RMK A01 T00161004  RH  087%=      5-min Rain = 0
KJU1 140801Z 05007KT 02/M00 A3037 RMK A01 T00161004  RH  087%=      5-min Rain = 0
KJU1 140802Z 07007KT 02/M00 A3037 RMK A01 T00161004  RH  087%=      5-min Rain = 0
KJU1 140803Z 07007KT 02/M00 A3037 RMK A01 T00161004  RH  087%=      5-min Rain = 0
KJU1 140804Z 06007KT 02/M00 A3037 RMK A01 T00161004  RH  087%=      5-min Rain = 0
KJU1 140805Z 05009KT 02/M00 A3037 RMK A01 T00161004  RH  087%=      5-min Rain = 0
KJU1 140806Z 06004KT 02/M01 A3037 RMK A01 T00161005  RH  086%=      5-min Rain = 0
KJU1 140807Z 08005KT 02/M01 A3037 RMK A01 T00151005  RH  086%=      5-min Rain = 0
KJU1 140808Z 07005KT 02/M01 A3037 RMK A01 T00151005  RH  086%=      5-min Rain = 0
KJU1 140809Z 07007KT 02/M00 A3037 RMK A01 T00161004  RH  086%=      5-min Rain = 0
KJU1 140810Z 06005KT 02/M00 A3037 RMK A01 T00151004  RH  087%=      5-min Rain = 0
KJU1 140811Z 04006KT 02/M00 A3037 RMK A01 T00151004  RH  087%=      5-min Rain = 0
KJU1 140812Z 06007KT 02/M01 A3037 RMK A01 T00151005  RH  087%=      5-min Rain = 0
KJU1 140813Z 08007KT 02/M01 A3037 RMK A01 T00151005  RH  087%=      5-min Rain = 0
KJU1 140814Z 07004KT 02/M01 A3037 RMK A01 T00151005  RH  087%=      5-min Rain = 0
KJU1 140815Z 06005KT 02/M01 A3037 RMK A01 T00151005  RH  087%=      5-min Rain = 0
KJU1 140816Z 06005KT 02/M01 A3037 RMK A01 T00151005  RH  087%=      5-min Rain = 0
KJU1 140817Z 06006KT 02/M01 A3037 RMK A01 T00151005  RH  086%=      5-min Rain = 0
KJU1 140818Z 08005KT 02/M01 A3037 RMK A01 T00151006  RH  086%=      5-min Rain = 0
KJU1 140819Z 10005KT 02/M01 A3037 RMK A01 T00151006  RH  086%=      5-min Rain = 0
KJU1 140820Z 10002G7KT 02/M01 A3037 RMK A01 T00151006  RH  086%=      5-min Rain = 0
KJU1 140821Z 06005KT 02/M01 A3037 RMK A01 T00151006  RH  086%=      5-min Rain = 0
KJU1 140822Z 06004KT 02/M01 A3037 RMK A01 T00151006  RH  086%=      5-min Rain = 0
KJU1 140823Z 05004KT 02/M01 A3037 RMK A01 T00151006  RH  086%=      5-min Rain = 0
KJU1 140824Z 06003KT 02/M01 A3036 RMK A01 T00151006  RH  086%=      5-min Rain = 0
KJU1 140825Z 05006KT 01/M01 A3036 RMK A01 T00141007  RH  086%=      5-min Rain = 0
KJU1 140826Z 07005KT 01/M01 A3036 RMK A01 T00141006  RH  086%=      5-min Rain = 0
KJU1 140827Z 05005KT 01/M01 A3036 RMK A01 T00141007  RH  086%=      5-min Rain = 0
KJU1 140828Z 04007KT 01/M01 A3036 RMK A01 T00141007  RH  086%=      5-min Rain = 0
KJU1 140829Z 06007KT 01/M01 A3036 RMK A01 T00141007  RH  086%=      5-min Rain = 0
KJU1 140830Z 06007KT 01/M01 A3036 RMK A01 T00141007  RH  086%=      5-min Rain = 0
KJU1 140831Z 05007KT 01/M01 A3036 RMK A01 T00141007  RH  086%=      5-min Rain = 0
KJU1 140832Z 06007KT 01/M01 A3036 RMK A01 T00141007  RH  086%=      5-min Rain = 0
KJU1 140833Z 06007KT 01/M01 A3036 RMK A01 T00141007  RH  086%=      5-min Rain = 0
KJU1 140834Z 06006KT 01/M01 A3036 RMK A01 T00131007  RH  086%=      5-min Rain = 0
KJU1 140835Z 07006KT 01/M01 A3036 RMK A01 T00131008  RH  086%=      5-min Rain = 0
KJU1 140836Z 05008KT 01/M01 A3036 RMK A01 T00131008  RH  086%=      5-min Rain = 0
KJU1 140837Z 06008KT 01/M01 A3036 RMK A01 T00131008  RH  086%=      5-min Rain = 0
KJU1 140838Z 06007KT 01/M01 A3036 RMK A01 T00131008  RH  086%=      5-min Rain = 0
KJU1 140839Z 05010KT 01/M01 A3036 RMK A01 T00121008  RH  086%=      5-min Rain = 0
KJU1 140840Z 06007KT 01/M01 A3036 RMK A01 T00121008  RH  087%=      5-min Rain = 0
KJU1 140841Z 06008KT 01/M01 A3036 RMK A01 T00121008  RH  087%=      5-min Rain = 0
KJU1 140842Z 05008KT 01/M01 A3036 RMK A01 T00121008  RH  087%=      5-min Rain = 0
KJU1 140843Z 05009KT 01/M01 A3036 RMK A01 T00121008  RH  087%=      5-min Rain = 0
KJU1 140844Z 06008KT 01/M01 A3036 RMK A01 T00121008  RH  087%=      5-min Rain = 0
KJU1 140845Z 07006KT 01/M01 A3036 RMK A01 T00111008  RH  087%=      5-min Rain = 0
KJU1 140846Z 06005KT 01/M01 A3036 RMK A01 T00111008  RH  087%=      5-min Rain = 0
KJU1 140847Z 06005KT 01/M01 A3036 RMK A01 T00111008  RH  087%=      5-min Rain = 0
KJU1 140848Z 05005KT 01/M01 A3036 RMK A01 T00111008  RH  087%=      5-min Rain = 0
KJU1 140849Z 05005KT 01/M01 A3036 RMK A01 T00111008  RH  087%=      5-min Rain = 0
KJU1 140850Z 05005KT 01/M01 A3036 RMK A01 T00111008  RH  087%=      5-min Rain = 0
KJU1 140851Z 05005KT 01/M01 A3036 RMK A01 T00111008  RH  087%=      5-min Rain = 0
KJU1 140852Z 05005KT 01/M01 A3036 RMK A01 T00111008  RH  087%=      5-min Rain = 0
KJU1 140853Z 05006KT 01/M01 A3037 RMK A01 T00111008  RH  087%=      5-min Rain = 0
KJU1 140854Z 07003KT 01/M01 A3036 RMK A01 T00101008  RH  087%=      5-min Rain = 0
KJU1 140855Z 08002KT 01/M01 A3036 RMK A01 T00111008  RH  087%=      5-min Rain = 0
KJU1 140856Z 05004KT 01/M01 A3037 RMK A01 T00111008  RH  087%=      5-min Rain = 0
KJU1 140857Z 06003KT 01/M01 A3037 RMK A01 T00101009  RH  087%=      5-min Rain = 0
KJU1 140858Z 07001KT 01/M01 A3037 RMK A01 T00091010  RH  087%=      5-min Rain = 0
KJU1 140859Z 14000KT 01/M01 A3037 RMK A01 T00091010  RH  087%=      5-min Rain = 0
KJU1 140900Z 14000KT 01/M01 A3037 RMK A01 T00091009  RH  088%=      5-min Rain = 0
KJU1 140901Z 00000KT 01/M01 A3036 RMK A01 T00091009  RH  088%=      5-min Rain = 0
KJU1 140902Z 14001KT 01/M01 A3036 RMK A01 T00081010  RH  088%=      5-min Rain = 0
KJU1 140903Z 09002KT 01/M01 A3036 RMK A01 T00081010  RH  088%=      5-min Rain = 0
KJU1 140904Z 01000KT 01/M01 A3036 RMK A01 T00081009  RH  088%=      5-min Rain = 0
KJU1 140905Z 02002KT 01/M01 A3036 RMK A01 T00081009  RH  088%=      5-min Rain = 0
KJU1 140906Z 07002KT 01/M01 A3036 RMK A01 T00081010  RH  088%=      5-min Rain = 0
KJU1 140907Z 07002KT 01/M01 A3036 RMK A01 T00071010  RH  088%=      5-min Rain = 0
KJU1 140908Z 04003KT 01/M01 A3036 RMK A01 T00071010  RH  088%=      5-min Rain = 0
KJU1 140909Z 05002KT 01/M01 A3036 RMK A01 T00081009  RH  088%=      5-min Rain = 0
KJU1 140910Z 04004KT 01/M01 A3036 RMK A01 T00081009  RH  088%=      5-min Rain = 0
KJU1 140911Z 04004KT 01/M01 A3036 RMK A01 T00081009  RH  088%=      5-min Rain = 0
KJU1 140912Z 04004KT 01/M01 A3036 RMK A01 T00081009  RH  088%=      5-min Rain = 0
KJU1 140913Z 05005KT 01/M01 A3036 RMK A01 T00081010  RH  088%=      5-min Rain = 0
KJU1 140914Z 05005KT 01/M01 A3036 RMK A01 T00081010  RH  088%=      5-min Rain = 0
KJU1 140915Z 05005KT 01/M01 A3036 RMK A01 T00071010  RH  088%=      5-min Rain = 0
KJU1 140916Z 05004KT 01/M01 A3036 RMK A01 T00071010  RH  089%=      5-min Rain = 0
KJU1 140917Z 05004KT 01/M01 A3036 RMK A01 T00061010  RH  089%=      5-min Rain = 0
KJU1 140918Z 04003KT 01/M01 A3036 RMK A01 T00061010  RH  089%=      5-min Rain = 0
KJU1 140919Z 04003KT 01/M01 A3036 RMK A01 T00061011  RH  089%=      5-min Rain = 0
KJU1 140920Z 04004KT 01/M01 A3036 RMK A01 T00051011  RH  089%=      5-min Rain = 0
KJU1 140921Z 05005KT 01/M01 A3036 RMK A01 T00051011  RH  089%=      5-min Rain = 0
KJU1 140922Z 04005KT 01/M01 A3036 RMK A01 T00051011  RH  089%=      5-min Rain = 0
KJU1 140923Z 05005KT 01/M01 A3035 RMK A01 T00051010  RH  090%=      5-min Rain = 0
KJU1 140924Z 04004KT 01/M01 A3035 RMK A01 T00051010  RH  089%=      5-min Rain = 0
KJU1 140925Z 04004KT 01/M01 A3035 RMK A01 T00051011  RH  089%=      5-min Rain = 0
KJU1 140926Z 04004KT 00/M01 A3035 RMK A01 T00041011  RH  090%=      5-min Rain = 0
KJU1 140927Z 04004KT 00/M01 A3035 RMK A01 T00041011  RH  090%=      5-min Rain = 0
KJU1 140928Z 04004KT 00/M01 A3035 RMK A01 T00041011  RH  090%=      5-min Rain = 0
KJU1 140929Z 04004KT 00/M01 A3035 RMK A01 T00041011  RH  090%=      5-min Rain = 0
KJU1 140930Z 04003KT 00/M01 A3035 RMK A01 T00031011  RH  090%=      5-min Rain = 0
KJU1 140931Z 04003KT 00/M01 A3036 RMK A01 T00031011  RH  090%=      5-min Rain = 0
KJU1 140932Z 03003KT 00/M01 A3035 RMK A01 T00031011  RH  090%=      5-min Rain = 0
KJU1 140933Z 02003KT 00/M01 A3035 RMK A01 T00031011  RH  090%=      5-min Rain = 0
KJU1 140934Z 02003KT 00/M01 A3035 RMK A01 T00031011  RH  091%=      5-min Rain = 0
KJU1 140935Z 03003KT 00/M01 A3035 RMK A01 T00031010  RH  091%=      5-min Rain = 0
KJU1 140936Z 03003KT 00/M01 A3035 RMK A01 T00031010  RH  091%=      5-min Rain = 0
KJU1 140937Z 03003KT 00/M01 A3035 RMK A01 T00031010  RH  091%=      5-min Rain = 0
KJU1 140938Z 03003KT 00/M01 A3035 RMK A01 T00031011  RH  090%=      5-min Rain = 0
KJU1 140939Z 03002KT 00/M01 A3035 RMK A01 T00021012  RH  090%=      5-min Rain = 0
KJU1 140940Z 03003KT 00/M01 A3035 RMK A01 T00011013  RH  090%=      5-min Rain = 0
KJU1 140941Z 03003KT 00/M01 A3035 RMK A01 T00011012  RH  091%=      5-min Rain = 0
KJU1 140942Z 04003KT 00/M01 A3035 RMK A01 T00011012  RH  091%=      5-min Rain = 0
KJU1 140943Z 04003KT 00/M01 A3035 RMK A01 T00011012  RH  091%=      5-min Rain = 0
KJU1 140944Z 04003KT 00/01 A3035 RMK A01 T00000-13  RH  091%=      5-min Rain = 0
KJU1 140945Z 04003KT 00/01 A3035 RMK A01 T00000-12  RH  091%=      5-min Rain = 0
KJU1 140946Z 05003KT 00/M01 A3035 RMK A01 T00011012  RH  091%=      5-min Rain = 0
KJU1 140947Z 05003KT 00/M01 A3035 RMK A01 T00011012  RH  091%=      5-min Rain = 0
KJU1 140948Z 06004KT 00/M01 A3035 RMK A01 T00011012  RH  091%=      5-min Rain = 0
KJU1 140949Z 05003KT 00/M01 A3035 RMK A01 T00011011  RH  092%=      5-min Rain = 0
KJU1 140950Z 05003KT 00/M01 A3035 RMK A01 T00011011  RH  091%=      5-min Rain = 0
KJU1 140951Z 06003KT 00/M01 A3035 RMK A01 T00011012  RH  091%=      5-min Rain = 0
KJU1 140952Z 05004KT 00/M01 A3035 RMK A01 T00011011  RH  091%=      5-min Rain = 0
KJU1 140953Z 05004KT 00/M01 A3035 RMK A01 T00011011  RH  091%=      5-min Rain = 0
KJU1 140954Z 05003KT 00/M01 A3035 RMK A01 T00011011  RH  091%=      5-min Rain = 0
KJU1 140955Z 04004KT 00/M01 A3035 RMK A01 T00021011  RH  091%=      5-min Rain = 0
KJU1 140956Z 06003KT 00/M01 A3035 RMK A01 T00021011  RH  091%=      5-min Rain = 0
KJU1 140957Z 05005KT 00/M01 A3035 RMK A01 T00021010  RH  091%=      5-min Rain = 0
KJU1 140958Z 06003KT 00/M01 A3035 RMK A01 T00031010  RH  091%=      5-min Rain = 0
KJU1 140959Z 05003KT 00/M01 A3036 RMK A01 T00031010  RH  091%=      5-min Rain = 0
KJU1 141000Z 07002KT 00/M01 A3036 RMK A01 T00041010  RH  090%=      5-min Rain = 0
KJU1 141001Z 08002KT 00/M01 A3036 RMK A01 T00031011  RH  090%=      5-min Rain = 0
KJU1 141002Z 05003KT 00/M01 A3036 RMK A01 T00041011  RH  090%=      5-min Rain = 0
KJU1 141003Z 05003KT 00/M01 A3036 RMK A01 T00041011  RH  090%=      5-min Rain = 0
KJU1 141004Z 06003KT 00/M01 A3036 RMK A01 T00041010  RH  090%=      5-min Rain = 0
KJU1 141005Z 07003KT 00/M01 A3036 RMK A01 T00041011  RH  090%=      5-min Rain = 0
KJU1 141006Z 08002KT 00/M01 A3036 RMK A01 T00031012  RH  090%=      5-min Rain = 0
KJU1 141007Z 05003KT 00/M01 A3036 RMK A01 T00031011  RH  090%=      5-min Rain = 0
KJU1 141008Z 07005KT 00/M01 A3036 RMK A01 T00041011  RH  090%=      5-min Rain = 0
KJU1 141009Z 07003KT 00/M01 A3036 RMK A01 T00041011  RH  090%=      5-min Rain = 0
KJU1 141010Z 05003KT 00/M01 A3036 RMK A01 T00041010  RH  090%=      5-min Rain = 0
KJU1 141011Z 04003KT 00/M01 A3036 RMK A01 T00041012  RH  089%=      5-min Rain = 0
KJU1 141012Z 04003KT 00/M01 A3036 RMK A01 T00031013  RH  089%=      5-min Rain = 0
KJU1 141013Z 06004KT 00/M01 A3036 RMK A01 T00031013  RH  089%=      5-min Rain = 0
KJU1 141014Z 07002KT 00/M01 A3036 RMK A01 T00031012  RH  090%=      5-min Rain = 0
KJU1 141015Z 05002KT 00/M01 A3036 RMK A01 T00031011  RH  090%=      5-min Rain = 0
KJU1 141016Z 05003KT 00/M01 A3036 RMK A01 T00031012  RH  089%=      5-min Rain = 0
KJU1 141017Z 06003KT 00/M01 A3036 RMK A01 T00021013  RH  089%=      5-min Rain = 0
KJU1 141018Z 06003KT 00/M01 A3036 RMK A01 T00021014  RH  089%=      5-min Rain = 0
KJU1 141019Z 06002KT 00/M02 A3036 RMK A01 T00011015  RH  089%=      5-min Rain = 0
KJU1 141020Z 05002KT 00/02 A3036 RMK A01 T00000-15  RH  090%=      5-min Rain = 0
KJU1 141021Z 04003KT 00/02 A3036 RMK A01 T00-00-15  RH  090%=      5-min Rain = 0
KJU1 141022Z 04003KT M00/M02 A3036 RMK A01 T10011016  RH  090%=      5-min Rain = 0
KJU1 141023Z 04004KT M00/M02 A3036 RMK A01 T10021016  RH  090%=      5-min Rain = 0
KJU1 141024Z 03004KT M00/M02 A3036 RMK A01 T10021016  RH  090%=      5-min Rain = 0
KJU1 141025Z 03003KT M00/M02 A3036 RMK A01 T10021015  RH  091%=      5-min Rain = 0
KJU1 141026Z 03003KT M00/M02 A3036 RMK A01 T10031016  RH  091%=      5-min Rain = 0
KJU1 141027Z 03003KT M00/M02 A3036 RMK A01 T10031015  RH  091%=      5-min Rain = 0
KJU1 141028Z 02002KT M00/M02 A3036 RMK A01 T10031015  RH  092%=      5-min Rain = 0
KJU1 141029Z 02002KT M00/M02 A3036 RMK A01 T10031015  RH  092%=      5-min Rain = 0
KJU1 141030Z 02001KT M00/M01 A3036 RMK A01 T10031014  RH  092%=      5-min Rain = 0
KJU1 141031Z 02001KT M00/M01 A3036 RMK A01 T10031014  RH  092%=      5-min Rain = 0
KJU1 141032Z 03001KT M00/M02 A3036 RMK A01 T10031015  RH  092%=      5-min Rain = 0
KJU1 141033Z 03001KT M00/M02 A3036 RMK A01 T10041016  RH  092%=      5-min Rain = 0
KJU1 141034Z 03001KT M01/M02 A3036 RMK A01 T10051016  RH  092%=      5-min Rain = 0
KJU1 141035Z 03002KT M01/M02 A3036 RMK A01 T10051016  RH  092%=      5-min Rain = 0
KJU1 141036Z 01002KT M01/M02 A3036 RMK A01 T10061018  RH  092%=      5-min Rain = 0
KJU1 141037Z 01002KT M01/M02 A3036 RMK A01 T10081020  RH  092%=      5-min Rain = 0
KJU1 141038Z 00002KT M01/M02 A3036 RMK A01 T10081019  RH  092%=      5-min Rain = 0
KJU1 141039Z 01003KT M01/M02 A3036 RMK A01 T10071018  RH  093%=      5-min Rain = 0
KJU1 141040Z 01003KT M01/M02 A3036 RMK A01 T10071016  RH  093%=      5-min Rain = 0
KJU1 141041Z 02003KT M01/M02 A3036 RMK A01 T10061015  RH  093%=      5-min Rain = 0
KJU1 141042Z 02003KT M01/M01 A3036 RMK A01 T10051014  RH  094%=      5-min Rain = 0
KJU1 141043Z 02004KT M01/M01 A3036 RMK A01 T10051014  RH  093%=      5-min Rain = 0
KJU1 141044Z 02004KT M01/M01 A3036 RMK A01 T10051014  RH  094%=      5-min Rain = 0
KJU1 141045Z 02005KT M01/M01 A3036 RMK A01 T10051014  RH  094%=      5-min Rain = 0
KJU1 141046Z 02005KT M01/M01 A3036 RMK A01 T10051013  RH  094%=      5-min Rain = 0
KJU1 141047Z 02005KT M01/M01 A3036 RMK A01 T10051013  RH  094%=      5-min Rain = 0
KJU1 141048Z 02004KT M01/M01 A3036 RMK A01 T10051013  RH  094%=      5-min Rain = 0
KJU1 141049Z 02004KT M01/M01 A3036 RMK A01 T10051013  RH  094%=      5-min Rain = 0
KJU1 141050Z 02004KT M00/M01 A3036 RMK A01 T10041012  RH  094%=      5-min Rain = 0
KJU1 141051Z 02003KT M01/M01 A3036 RMK A01 T10051013  RH  094%=      5-min Rain = 0
KJU1 141052Z 02003KT M01/M01 A3036 RMK A01 T10051013  RH  094%=      5-min Rain = 0
KJU1 141053Z 03003KT M00/M01 A3036 RMK A01 T10041012  RH  094%=      5-min Rain = 0
KJU1 141054Z 02003KT M01/M01 A3036 RMK A01 T10051013  RH  094%=      5-min Rain = 0
KJU1 141055Z 03003KT M01/M01 A3036 RMK A01 T10051013  RH  094%=      5-min Rain = 0
KJU1 141056Z 03003KT M01/M01 A3036 RMK A01 T10051013  RH  094%=      5-min Rain = 0
KJU1 141057Z 03003KT M01/M01 A3036 RMK A01 T10051013  RH  094%=      5-min Rain = 0
KJU1 141058Z 03003KT M00/M01 A3036 RMK A01 T10041012  RH  094%=      5-min Rain = 0
KJU1 141059Z 04003KT M01/M01 A3036 RMK A01 T10051012  RH  095%=      5-min Rain = 0
KJU1 141100Z 03002KT M01/M01 A3036 RMK A01 T10051012  RH  095%=      5-min Rain = 0
KJU1 141101Z 03003KT M01/M01 A3036 RMK A01 T10051012  RH  095%=      5-min Rain = 0
KJU1 141102Z 03002KT M01/M01 A3036 RMK A01 T10051012  RH  095%=      5-min Rain = 0
KJU1 141103Z 03002KT M01/M01 A3036 RMK A01 T10051012  RH  095%=      5-min Rain = 0
KJU1 141104Z 03002KT M01/M01 A3036 RMK A01 T10051012  RH  095%=      5-min Rain = 0
KJU1 141105Z 03003KT M01/M01 A3036 RMK A01 T10051012  RH  095%=      5-min Rain = 0
KJU1 141106Z 02002KT M01/M01 A3036 RMK A01 T10051012  RH  095%=      5-min Rain = 0
KJU1 141107Z 02002KT M01/M01 A3036 RMK A01 T10051012  RH  095%=      5-min Rain = 0
KJU1 141108Z 02003KT M01/M01 A3036 RMK A01 T10051012  RH  095%=      5-min Rain = 0
KJU1 141109Z 02002KT M01/M01 A3036 RMK A01 T10051012  RH  095%=      5-min Rain = 0
KJU1 141110Z 01002KT M01/M01 A3036 RMK A01 T10051012  RH  095%=      5-min Rain = 0
KJU1 141111Z 01002KT M01/M01 A3036 RMK A01 T10051013  RH  095%=      5-min Rain = 0
KJU1 141112Z 02002KT M01/M01 A3036 RMK A01 T10051012  RH  095%=      5-min Rain = 0
KJU1 141113Z 01002KT M01/M01 A3036 RMK A01 T10051012  RH  095%=      5-min Rain = 0
KJU1 141114Z 00001KT M01/M01 A3036 RMK A01 T10051012  RH  095%=      5-min Rain = 0
KJU1 141115Z 00001KT M01/M01 A3036 RMK A01 T10051012  RH  095%=      5-min Rain = 0
KJU1 141116Z 00002KT M01/M01 A3036 RMK A01 T10061014  RH  095%=      5-min Rain = 0
KJU1 141117Z 00002KT M01/M02 A3036 RMK A01 T10071015  RH  095%=      5-min Rain = 0
KJU1 141118Z 01001KT M01/M02 A3036 RMK A01 T10081016  RH  094%=      5-min Rain = 0
KJU1 141119Z 01001KT M01/M02 A3036 RMK A01 T10091016  RH  095%=      5-min Rain = 0
KJU1 141120Z 00001KT M01/M02 A3036 RMK A01 T10091017  RH  095%=      5-min Rain = 0
KJU1 141121Z 02001KT M01/M02 A3036 RMK A01 T10101017  RH  095%=      5-min Rain = 0
KJU1 141122Z 02001KT M01/M02 A3036 RMK A01 T10101018  RH  095%=      5-min Rain = 0
KJU1 141123Z 02001KT M01/M02 A3036 RMK A01 T10111019  RH  094%=      5-min Rain = 0
KJU1 141124Z 02001KT M01/M02 A3036 RMK A01 T10131021  RH  094%=      5-min Rain = 0
KJU1 141125Z 03001KT M01/M02 A3036 RMK A01 T10141022  RH  094%=      5-min Rain = 0
KJU1 141126Z 03001KT M02/M02 A3036 RMK A01 T10161024  RH  094%=      5-min Rain = 0
KJU1 141127Z 03001KT M02/M03 A3036 RMK A01 T10171026  RH  094%=      5-min Rain = 0
KJU1 141128Z 04001KT M02/M03 A3036 RMK A01 T10191028  RH  094%=      5-min Rain = 0
KJU1 141129Z 04001KT M02/M03 A3036 RMK A01 T10211030  RH  094%=      5-min Rain = 0
KJU1 141130Z 05001KT M02/M03 A3036 RMK A01 T10211030  RH  094%=      5-min Rain = 0
KJU1 141131Z 05001KT M02/M03 A3036 RMK A01 T10211030  RH  094%=      5-min Rain = 0
KJU1 141132Z 05001KT M02/M03 A3036 RMK A01 T10231031  RH  094%=      5-min Rain = 0
KJU1 141133Z 04001KT M02/M03 A3036 RMK A01 T10241032  RH  094%=      5-min Rain = 0
KJU1 141134Z 04001KT M03/M03 A3036 RMK A01 T10251033  RH  094%=      5-min Rain = 0
KJU1 141135Z 03001KT M03/M03 A3036 RMK A01 T10261034  RH  094%=      5-min Rain = 0
KJU1 141136Z 02002KT M03/M04 A3036 RMK A01 T10271035  RH  094%=      5-min Rain = 0
KJU1 141137Z 02002KT M03/M04 A3036 RMK A01 T10271035  RH  094%=      5-min Rain = 0
KJU1 141138Z 02002KT M03/M04 A3036 RMK A01 T10271036  RH  094%=      5-min Rain = 0
KJU1 141139Z 02002KT M03/M04 A3036 RMK A01 T10281036  RH  094%=      5-min Rain = 0
KJU1 141140Z 02003KT M03/M04 A3036 RMK A01 T10281036  RH  094%=      5-min Rain = 0
KJU1 141141Z 02003KT M03/M04 A3036 RMK A01 T10281036  RH  094%=      5-min Rain = 0
KJU1 141142Z 02003KT M03/M04 A3036 RMK A01 T10281036  RH  094%=      5-min Rain = 0
KJU1 141143Z 02003KT M03/M04 A3036 RMK A01 T10281036  RH  095%=      5-min Rain = 0
KJU1 141144Z 02003KT M03/M04 A3036 RMK A01 T10281036  RH  095%=      5-min Rain = 0
KJU1 141145Z 02003KT M03/M04 A3036 RMK A01 T10281036  RH  095%=      5-min Rain = 0
KJU1 141146Z 03003KT M03/M04 A3036 RMK A01 T10281035  RH  095%=      5-min Rain = 0
KJU1 141147Z 03002KT M03/M03 A3036 RMK A01 T10271034  RH  095%=      5-min Rain = 0
KJU1 141148Z 03002KT M03/M03 A3036 RMK A01 T10261033  RH  095%=      5-min Rain = 0
KJU1 141149Z 01002KT M03/M03 A3036 RMK A01 T10261032  RH  095%=      5-min Rain = 0
KJU1 141150Z 02002KT M03/M03 A3036 RMK A01 T10261032  RH  095%=      5-min Rain = 0
KJU1 141151Z 02002KT M03/M03 A3036 RMK A01 T10261032  RH  095%=      5-min Rain = 0
KJU1 141152Z 03002KT M03/M03 A3036 RMK A01 T10251031  RH  096%=      5-min Rain = 0
KJU1 141153Z 03002KT M02/M03 A3036 RMK A01 T10241030  RH  096%=      5-min Rain = 0
KJU1 141154Z 03002KT M02/M03 A3036 RMK A01 T10231029  RH  096%=      5-min Rain = 0
KJU1 141155Z 03002KT M02/M03 A3036 RMK A01 T10231029  RH  096%=      5-min Rain = 0
KJU1 141156Z 04002KT M02/M03 A3036 RMK A01 T10221028  RH  096%=      5-min Rain = 0
KJU1 141157Z 04002KT M02/M03 A3036 RMK A01 T10231028  RH  096%=      5-min Rain = 0
KJU1 141158Z 04003KT M02/M03 A3037 RMK A01 T10231028  RH  096%=      5-min Rain = 0
KJU1 141159Z 04003KT M02/M03 A3037 RMK A01 T10231028  RH  096%=      5-min Rain = 0
KJU1 141200Z 04003KT M02/M03 A3037 RMK A01 T10221028  RH  096%=      5-min Rain = 0
KJU1 141201Z 04003KT M02/M03 A3037 RMK A01 T10231028  RH  096%=      5-min Rain = 0
KJU1 141202Z 04003KT M02/M03 A3037 RMK A01 T10231029  RH  096%=      5-min Rain = 0
KJU1 141203Z 04003KT M02/M03 A3037 RMK A01 T10241030  RH  096%=      5-min Rain = 0
KJU1 141204Z 05003KT M03/M03 A3037 RMK A01 T10251032  RH  096%=      5-min Rain = 0
KJU1 141205Z 04003KT M03/M03 A3037 RMK A01 T10271033  RH  096%=      5-min Rain = 0
KJU1 141206Z 04003KT M03/M03 A3037 RMK A01 T10271034  RH  096%=      5-min Rain = 0
KJU1 141207Z 04002KT M03/M03 A3037 RMK A01 T10281034  RH  096%=      5-min Rain = 0
KJU1 141208Z 03003KT M03/M03 A3037 RMK A01 T10281034  RH  096%=      5-min Rain = 0
KJU1 141209Z 02003KT M03/M03 A3037 RMK A01 T10271033  RH  096%=      5-min Rain = 0
KJU1 141210Z 02002KT M02/M03 A3037 RMK A01 T10241029  RH  097%=      5-min Rain = 0
KJU1 141211Z 02002KT M02/M02 A3037 RMK A01 T10201024  RH  097%=      5-min Rain = 0
KJU1 141212Z 02003KT M02/M02 A3037 RMK A01 T10171021  RH  097%=      5-min Rain = 0
KJU1 141213Z 02003KT M02/M02 A3037 RMK A01 T10161019  RH  097%=      5-min Rain = 0
KJU1 141214Z 01003KT M02/M02 A3037 RMK A01 T10151018  RH  097%=      5-min Rain = 0
KJU1 141215Z 02002KT M01/M02 A3037 RMK A01 T10141018  RH  097%=      5-min Rain = 0
KJU1 141216Z 02002KT M01/M02 A3037 RMK A01 T10141018  RH  097%=      5-min Rain = 0
KJU1 141217Z 02002KT M01/M02 A3037 RMK A01 T10141018  RH  097%=      5-min Rain = 0
KJU1 141218Z 03002KT M01/M02 A3037 RMK A01 T10141018  RH  097%=      5-min Rain = 0
KJU1 141219Z 03002KT M01/M02 A3037 RMK A01 T10141018  RH  097%=      5-min Rain = 0
KJU1 141220Z 03002KT M02/M02 A3037 RMK A01 T10151020  RH  097%=      5-min Rain = 0
KJU1 141221Z 03002KT M02/M02 A3037 RMK A01 T10161020  RH  097%=      5-min Rain = 0
KJU1 141222Z 02002KT M02/M02 A3037 RMK A01 T10161020  RH  097%=      5-min Rain = 0
KJU1 141223Z 02002KT M02/M02 A3037 RMK A01 T10161020  RH  097%=      5-min Rain = 0
KJU1 141224Z 02002KT M02/M02 A3037 RMK A01 T10161020  RH  097%=      5-min Rain = 0
KJU1 141225Z 03002KT M02/M02 A3037 RMK A01 T10161020  RH  097%=      5-min Rain = 0
KJU1 141226Z 02002KT M02/M02 A3037 RMK A01 T10161020  RH  097%=      5-min Rain = 0
KJU1 141227Z 02002KT M02/M02 A3037 RMK A01 T10151019  RH  097%=      5-min Rain = 0
KJU1 141228Z 02003KT M01/M02 A3037 RMK A01 T10141018  RH  097%=      5-min Rain = 0
KJU1 141229Z 02003KT M01/M02 A3037 RMK A01 T10141018  RH  097%=      5-min Rain = 0
KJU1 141230Z 01002KT M01/M02 A3037 RMK A01 T10141018  RH  097%=      5-min Rain = 0
KJU1 141231Z 02002KT M01/M02 A3037 RMK A01 T10131017  RH  097%=      5-min Rain = 0
KJU1 141232Z 02002KT M01/M02 A3037 RMK A01 T10131017  RH  097%=      5-min Rain = 0
KJU1 141233Z 02002KT M01/M02 A3037 RMK A01 T10131017  RH  097%=      5-min Rain = 0
KJU1 141234Z 02002KT M01/M02 A3037 RMK A01 T10131017  RH  097%=      5-min Rain = 0
KJU1 141235Z 03002KT M01/M02 A3037 RMK A01 T10141018  RH  097%=      5-min Rain = 0
KJU1 141236Z 03002KT M01/M02 A3037 RMK A01 T10141018  RH  097%=      5-min Rain = 0
KJU1 141237Z 04003KT M02/M02 A3037 RMK A01 T10151019  RH  097%=      5-min Rain = 0
KJU1 141238Z 04003KT M02/M02 A3037 RMK A01 T10151020  RH  097%=      5-min Rain = 0
KJU1 141239Z 03002KT M02/M02 A3037 RMK A01 T10161020  RH  097%=      5-min Rain = 0
KJU1 141240Z 03002KT M02/M02 A3037 RMK A01 T10161021  RH  097%=      5-min Rain = 0
KJU1 141241Z 03002KT M02/M02 A3037 RMK A01 T10161021  RH  097%=      5-min Rain = 0
KJU1 141242Z 03002KT M02/M02 A3037 RMK A01 T10171021  RH  097%=      5-min Rain = 0
KJU1 141243Z 03002KT M02/M02 A3037 RMK A01 T10171021  RH  097%=      5-min Rain = 0
KJU1 141244Z 02002KT M02/M02 A3037 RMK A01 T10171021  RH  097%=      5-min Rain = 0
KJU1 141245Z 01001KT M02/M02 A3037 RMK A01 T10171021  RH  097%=      5-min Rain = 0
KJU1 141246Z 01001KT M02/M02 A3037 RMK A01 T10171021  RH  097%=      5-min Rain = 0
KJU1 141247Z 02001KT M02/M02 A3037 RMK A01 T10161020  RH  097%=      5-min Rain = 0
KJU1 141248Z 03001KT M02/M02 A3037 RMK A01 T10161021  RH  097%=      5-min Rain = 0
KJU1 141249Z 02001KT M02/M02 A3037 RMK A01 T10161020  RH  097%=      5-min Rain = 0
KJU1 141250Z 01001KT M02/M02 A3037 RMK A01 T10161020  RH  097%=      5-min Rain = 0
KJU1 141251Z 02001KT M02/M02 A3037 RMK A01 T10161020  RH  097%=      5-min Rain = 0
KJU1 141252Z 01001KT M02/M02 A3037 RMK A01 T10161020  RH  097%=      5-min Rain = 0
KJU1 141253Z 01001KT M02/M02 A3037 RMK A01 T10151019  RH  097%=      5-min Rain = 0
KJU1 141254Z 01001KT M02/M02 A3037 RMK A01 T10151019  RH  097%=      5-min Rain = 0
KJU1 141255Z 02002KT M02/M02 A3037 RMK A01 T10151020  RH  097%=      5-min Rain = 0
KJU1 141256Z 02002KT M02/M02 A3037 RMK A01 T10151019  RH  097%=      5-min Rain = 0
KJU1 141257Z 02003KT M02/M02 A3037 RMK A01 T10151019  RH  097%=      5-min Rain = 0
KJU1 141258Z 02003KT M01/M02 A3037 RMK A01 T10141018  RH  097%=      5-min Rain = 0
KJU1 141259Z 03003KT M01/M02 A3037 RMK A01 T10141017  RH  097%=      5-min Rain = 0
KJU1 141300Z 03003KT M01/M02 A3037 RMK A01 T10131017  RH  097%=      5-min Rain = 0
KJU1 141301Z 03003KT M01/M02 A3037 RMK A01 T10141017  RH  097%=      5-min Rain = 0
KJU1 141302Z 03003KT M01/M02 A3037 RMK A01 T10131017  RH  097%=      5-min Rain = 0
KJU1 141303Z 04003KT M01/M02 A3037 RMK A01 T10131017  RH  097%=      5-min Rain = 0
KJU1 141304Z 03003KT M01/M02 A3037 RMK A01 T10141018  RH  097%=      5-min Rain = 0
KJU1 141305Z 04003KT M02/M02 A3037 RMK A01 T10151019  RH  097%=      5-min Rain = 0
KJU1 141306Z 04003KT M02/M02 A3037 RMK A01 T10161020  RH  097%=      5-min Rain = 0
KJU1 141307Z 05003KT M02/M02 A3037 RMK A01 T10161021  RH  097%=      5-min Rain = 0
KJU1 141308Z 06003KT M02/M02 A3037 RMK A01 T10161021  RH  097%=      5-min Rain = 0
KJU1 141309Z 05004KT M02/M02 A3037 RMK A01 T10161020  RH  097%=      5-min Rain = 0
KJU1 141310Z 05003KT M02/M02 A3037 RMK A01 T10151019  RH  097%=      5-min Rain = 0
KJU1 141311Z 07002KT M01/M02 A3037 RMK A01 T10131017  RH  097%=      5-min Rain = 0
KJU1 141312Z 07003KT M01/M02 A3037 RMK A01 T10131017  RH  097%=      5-min Rain = 0
KJU1 141313Z 09003KT M01/M02 A3038 RMK A01 T10131017  RH  097%=      5-min Rain = 0
KJU1 141314Z 09004KT M01/M02 A3038 RMK A01 T10131016  RH  097%=      5-min Rain = 0
KJU1 141315Z 10004KT M01/M02 A3038 RMK A01 T10121015  RH  097%=      5-min Rain = 0
KJU1 141316Z 09004KT M01/M02 A3038 RMK A01 T10111015  RH  097%=      5-min Rain = 0
KJU1 141317Z 10006KT M01/M02 A3038 RMK A01 T10111015  RH  097%=      5-min Rain = 0
KJU1 141318Z 09005KT M01/M02 A3038 RMK A01 T10111015  RH  097%=      5-min Rain = 0
KJU1 141319Z 10005KT M01/M02 A3038 RMK A01 T10111015  RH  097%=      5-min Rain = 0
KJU1 141320Z 10004KT M01/M02 A3038 RMK A01 T10121016  RH  097%=      5-min Rain = 0
KJU1 141321Z 11005KT M01/M02 A3038 RMK A01 T10121017  RH  096%=      5-min Rain = 0
KJU1 141322Z 10004KT M01/M02 A3038 RMK A01 T10121017  RH  096%=      5-min Rain = 0
KJU1 141323Z 10004KT M01/M02 A3038 RMK A01 T10121018  RH  096%=      5-min Rain = 0
KJU1 141324Z 09003KT M01/M02 A3038 RMK A01 T10121018  RH  096%=      5-min Rain = 0
KJU1 141325Z 09004KT M01/M02 A3038 RMK A01 T10121018  RH  096%=      5-min Rain = 0
KJU1 141326Z 09005KT M01/M02 A3038 RMK A01 T10121018  RH  096%=      5-min Rain = 0
KJU1 141327Z 10004KT M01/M02 A3038 RMK A01 T10121019  RH  095%=      5-min Rain = 0
KJU1 141328Z 10004KT M01/M02 A3038 RMK A01 T10121019  RH  095%=      5-min Rain = 0
KJU1 141329Z 09003KT M01/M02 A3038 RMK A01 T10121019  RH  095%=      5-min Rain = 0
KJU1 141330Z 09003KT M01/M02 A3038 RMK A01 T10121019  RH  095%=      5-min Rain = 0
KJU1 141331Z 11002KT M01/M02 A3038 RMK A01 T10121019  RH  095%=      5-min Rain = 0
KJU1 141332Z 08002KT M01/M02 A3038 RMK A01 T10121019  RH  095%=      5-min Rain = 0
KJU1 141333Z 09003KT M01/M02 A3038 RMK A01 T10121020  RH  095%=      5-min Rain = 0
KJU1 141334Z 08003KT M01/M02 A3038 RMK A01 T10121020  RH  095%=      5-min Rain = 0
KJU1 141335Z 10003KT M01/M02 A3038 RMK A01 T10121020  RH  095%=      5-min Rain = 0
KJU1 141336Z 05002KT M01/M02 A3038 RMK A01 T10121020  RH  095%=      5-min Rain = 0
KJU1 141337Z 05003KT M01/M02 A3038 RMK A01 T10131021  RH  094%=      5-min Rain = 0
KJU1 141338Z 08003KT M01/M02 A3038 RMK A01 T10131021  RH  094%=      5-min Rain = 0
KJU1 141339Z 10002KT M01/M02 A3038 RMK A01 T10131021  RH  094%=      5-min Rain = 0
KJU1 141340Z 09002KT M01/M02 A3038 RMK A01 T10131021  RH  094%=      5-min Rain = 0
KJU1 141341Z 09003KT M01/M02 A3038 RMK A01 T10131021  RH  094%=      5-min Rain = 0
KJU1 141342Z 09002KT M01/M02 A3038 RMK A01 T10131022  RH  094%=      5-min Rain = 0
KJU1 141343Z 09002KT M01/M02 A3038 RMK A01 T10141022  RH  094%=      5-min Rain = 0
KJU1 141344Z 07001KT M01/M02 A3038 RMK A01 T10141022  RH  094%=      5-min Rain = 0
KJU1 141345Z 08002KT M01/M02 A3038 RMK A01 T10141022  RH  094%=      5-min Rain = 0
KJU1 141346Z 07002KT M01/M02 A3038 RMK A01 T10141022  RH  094%=      5-min Rain = 0
KJU1 141347Z 07002KT M01/M02 A3038 RMK A01 T10141022  RH  094%=      5-min Rain = 0
KJU1 141348Z 05001KT M01/M02 A3038 RMK A01 T10141022  RH  094%=      5-min Rain = 0
KJU1 141349Z 03001KT M01/M02 A3038 RMK A01 T10131022  RH  094%=      5-min Rain = 0
KJU1 141350Z 05001KT M01/M02 A3038 RMK A01 T10131021  RH  094%=      5-min Rain = 0
KJU1 141351Z 04001KT M01/M02 A3038 RMK A01 T10131021  RH  094%=      5-min Rain = 0
KJU1 141352Z 08001KT M01/M02 A3038 RMK A01 T10121021  RH  094%=      5-min Rain = 0
KJU1 141353Z 10001KT M01/M02 A3038 RMK A01 T10121020  RH  094%=      5-min Rain = 0
KJU1 141354Z 04002KT M01/M02 A3038 RMK A01 T10111019  RH  094%=      5-min Rain = 0
KJU1 141355Z 02002KT M01/M02 A3038 RMK A01 T10111020  RH  094%=      5-min Rain = 0
KJU1 141356Z 03003KT M01/M02 A3038 RMK A01 T10111020  RH  093%=      5-min Rain = 0
KJU1 141357Z 03003KT M01/M02 A3038 RMK A01 T10111020  RH  093%=      5-min Rain = 0
KJU1 141358Z 03002KT M01/M02 A3039 RMK A01 T10111021  RH  093%=      5-min Rain = 0
KJU1 141359Z 03002KT M01/M02 A3039 RMK A01 T10111020  RH  093%=      5-min Rain = 0
KJU1 141400Z 02001KT M01/M02 A3039 RMK A01 T10111021  RH  093%=      5-min Rain = 0
KJU1 141401Z 06002KT M01/M02 A3039 RMK A01 T10111020  RH  093%=      5-min Rain = 0
KJU1 141402Z 05001KT M01/M02 A3039 RMK A01 T10101020  RH  093%=      5-min Rain = 0
KJU1 141403Z 01001KT M01/M02 A3039 RMK A01 T10101019  RH  093%=      5-min Rain = 0
KJU1 141404Z 06003KT M01/M02 A3039 RMK A01 T10101019  RH  093%=      5-min Rain = 0
KJU1 141405Z 08002KT M01/M02 A3039 RMK A01 T10091019  RH  093%=      5-min Rain = 0
KJU1 141406Z 13000KT M01/M02 A3039 RMK A01 T10091019  RH  093%=      5-min Rain = 0
KJU1 141407Z 00000KT M01/M02 A3039 RMK A01 T10081018  RH  093%=      5-min Rain = 0
KJU1 141408Z 10000KT M01/M02 A3039 RMK A01 T10081018  RH  092%=      5-min Rain = 0
KJU1 141409Z 10000KT M01/M02 A3039 RMK A01 T10071018  RH  092%=      5-min Rain = 0
KJU1 141410Z 05001KT M01/M02 A3039 RMK A01 T10061017  RH  092%=      5-min Rain = 0
KJU1 141411Z 04002KT M01/M02 A3039 RMK A01 T10051017  RH  092%=      5-min Rain = 0
KJU1 141412Z 04002KT M01/M02 A3039 RMK A01 T10051018  RH  091%=      5-min Rain = 0
KJU1 141413Z 04002KT M01/M02 A3039 RMK A01 T10061019  RH  091%=      5-min Rain = 0
KJU1 141414Z 04002KT M01/M02 A3039 RMK A01 T10061019  RH  091%=      5-min Rain = 0
KJU1 141415Z 03002KT M01/M02 A3039 RMK A01 T10061019  RH  091%=      5-min Rain = 0
KJU1 141416Z 04002KT M01/M02 A3039 RMK A01 T10061019  RH  091%=      5-min Rain = 0
KJU1 141417Z 04002KT M01/M02 A3039 RMK A01 T10061019  RH  091%=      5-min Rain = 0
KJU1 141418Z 03002KT M01/M02 A3039 RMK A01 T10061018  RH  091%=      5-min Rain = 0
KJU1 141419Z 04002KT M01/M02 A3039 RMK A01 T10051018  RH  091%=      5-min Rain = 0
KJU1 141420Z 02002KT M01/M02 A3039 RMK A01 T10051018  RH  091%=      5-min Rain = 0
KJU1 141421Z 03002KT M01/M02 A304 RMK A01 T10051017  RH  091%=      5-min Rain = 0
KJU1 141422Z 03002KT M00/M02 A304 RMK A01 T10041017  RH  091%=      5-min Rain = 0
KJU1 141423Z 04002KT M01/M02 A304 RMK A01 T10051018  RH  091%=      5-min Rain = 0
KJU1 141424Z 05000KT M00/M02 A304 RMK A01 T10041018  RH  091%=      5-min Rain = 0
KJU1 141425Z 07000KT M00/M02 A304 RMK A01 T10041017  RH  091%=      5-min Rain = 0
KJU1 141426Z 05001KT M00/M02 A304 RMK A01 T10021015  RH  091%=      5-min Rain = 0
KJU1 141427Z 06001KT M00/M02 A304 RMK A01 T10021015  RH  091%=      5-min Rain = 0
KJU1 141428Z 03002KT M00/M02 A304 RMK A01 T10021016  RH  090%=      5-min Rain = 0
KJU1 141429Z 03001KT M00/M02 A304 RMK A01 T10011016  RH  090%=      5-min Rain = 0
KJU1 141430Z 02002KT M00/M02 A304 RMK A01 T10021017  RH  089%=      5-min Rain = 0
KJU1 141431Z 03002KT M00/M02 A304 RMK A01 T10021018  RH  089%=      5-min Rain = 0
KJU1 141432Z 03002KT M00/M02 A304 RMK A01 T10021018  RH  089%=      5-min Rain = 0
KJU1 141433Z 04003KT M00/M02 A304 RMK A01 T10021017  RH  090%=      5-min Rain = 0
KJU1 141434Z 03003KT M00/M02 A304 RMK A01 T10021017  RH  089%=      5-min Rain = 0
KJU1 141435Z 03003KT M00/M02 A304 RMK A01 T10031018  RH  089%=      5-min Rain = 0
KJU1 141436Z 03003KT M00/M02 A304 RMK A01 T10031019  RH  089%=      5-min Rain = 0
KJU1 141437Z 04003KT M00/M02 A304 RMK A01 T10041019  RH  089%=      5-min Rain = 0
KJU1 141438Z 02003KT M00/M02 A304 RMK A01 T10041018  RH  090%=      5-min Rain = 0
KJU1 141439Z 04002KT M00/M02 A304 RMK A01 T10031017  RH  090%=      5-min Rain = 0
KJU1 141440Z 04003KT M00/M02 A304 RMK A01 T10021016  RH  090%=      5-min Rain = 0
KJU1 141441Z 04003KT M00/M02 A304 RMK A01 T10021017  RH  090%=      5-min Rain = 0
KJU1 141442Z 04002KT M00/M02 A304 RMK A01 T10021016  RH  090%=      5-min Rain = 0
KJU1 141443Z 03002KT M00/M02 A304 RMK A01 T10021016  RH  090%=      5-min Rain = 0
KJU1 141444Z 02002KT M00/M02 A304 RMK A01 T10021017  RH  090%=      5-min Rain = 0
KJU1 141445Z 05002KT M00/M02 A304 RMK A01 T10021016  RH  090%=      5-min Rain = 0
KJU1 141446Z 06002KT 00/02 A304 RMK A01 T00-00-15  RH  090%=      5-min Rain = 0
KJU1 141447Z 06002KT 00/01 A304 RMK A01 T00000-14  RH  090%=      5-min Rain = 0
KJU1 141448Z 04003KT 00/02 A304 RMK A01 T00000-15  RH  090%=      5-min Rain = 0
KJU1 141449Z 05002KT 00/M01 A304 RMK A01 T00011014  RH  090%=      5-min Rain = 0
KJU1 141450Z 04002KT 00/M01 A304 RMK A01 T00011014  RH  090%=      5-min Rain = 0
KJU1 141451Z 05002KT 00/M02 A304 RMK A01 T00011015  RH  089%=      5-min Rain = 0
KJU1 141452Z 04002KT 00/02 A304 RMK A01 T00000-16  RH  089%=      5-min Rain = 0
KJU1 141453Z 03003KT 00/02 A304 RMK A01 T00000-15  RH  089%=      5-min Rain = 0
KJU1 141454Z 04002KT 00/M02 A304 RMK A01 T00011015  RH  089%=      5-min Rain = 0
KJU1 141455Z 02002KT 00/M02 A304 RMK A01 T00011016  RH  089%=      5-min Rain = 0
KJU1 141456Z 03002KT 00/M02 A304 RMK A01 T00011015  RH  089%=      5-min Rain = 0
KJU1 141457Z 02001KT 00/M01 A304 RMK A01 T00021014  RH  089%=      5-min Rain = 0
KJU1 141458Z 02001KT 00/M01 A304 RMK A01 T00021014  RH  089%=      5-min Rain = 0
KJU1 141459Z 01002KT 00/M01 A304 RMK A01 T00031012  RH  089%=      5-min Rain = 0
KJU1 141500Z 01003KT 00/M01 A304 RMK A01 T00041012  RH  089%=      5-min Rain = 0
KJU1 141501Z 01002KT 00/M01 A304 RMK A01 T00041011  RH  089%=      5-min Rain = 0
KJU1 141502Z 01002KT 01/M01 A304 RMK A01 T00051012  RH  089%=      5-min Rain = 0
KJU1 141503Z 01003KT 01/M01 A304 RMK A01 T00051012  RH  088%=      5-min Rain = 0
KJU1 141504Z 01003KT 01/M01 A304 RMK A01 T00051012  RH  088%=      5-min Rain = 0
KJU1 141505Z 01003KT 01/M01 A304 RMK A01 T00051012  RH  088%=      5-min Rain = 0
KJU1 141506Z 02003KT 01/M01 A304 RMK A01 T00051012  RH  088%=      5-min Rain = 0
KJU1 141507Z 01002KT 01/M01 A304 RMK A01 T00061011  RH  088%=      5-min Rain = 0
KJU1 141508Z 03002KT 01/M01 A304 RMK A01 T00071009  RH  089%=      5-min Rain = 0
KJU1 141509Z 03003KT 01/M01 A304 RMK A01 T00081009  RH  088%=      5-min Rain = 0
KJU1 141510Z 04003KT 01/M01 A304 RMK A01 T00081009  RH  088%=      5-min Rain = 0
KJU1 141511Z 05003KT 01/M01 A3041 RMK A01 T00091009  RH  088%=      5-min Rain = 0
KJU1 141512Z 04002KT 01/M01 A3041 RMK A01 T00091010  RH  087%=      5-min Rain = 0
KJU1 141513Z 05002KT 01/M01 A3041 RMK A01 T00101010  RH  087%=      5-min Rain = 0
KJU1 141514Z 07002KT 01/M01 A3041 RMK A01 T00101011  RH  086%=      5-min Rain = 0
KJU1 141515Z 05001KT 01/M01 A3041 RMK A01 T00111010  RH  086%=      5-min Rain = 0
KJU1 141516Z 02002KT 01/M01 A3041 RMK A01 T00111009  RH  086%=      5-min Rain = 0
KJU1 141517Z 01003KT 01/M01 A3041 RMK A01 T00141007  RH  086%=      5-min Rain = 0
KJU1 141518Z 03003KT 01/M01 A3041 RMK A01 T00141007  RH  086%=      5-min Rain = 0
KJU1 141519Z 05004KT 02/M01 A3041 RMK A01 T00151006  RH  086%=      5-min Rain = 0
KJU1 141520Z 04002KT 02/M01 A3041 RMK A01 T00161006  RH  085%=      5-min Rain = 0
KJU1 141521Z 06003KT 02/M01 A3041 RMK A01 T00161008  RH  084%=      5-min Rain = 0
KJU1 141522Z 06002KT 02/M01 A3041 RMK A01 T00171007  RH  084%=      5-min Rain = 0
KJU1 141523Z 04003KT 02/M01 A3041 RMK A01 T00181006  RH  084%=      5-min Rain = 0
KJU1 141524Z 06003KT 02/M01 A3041 RMK A01 T00191005  RH  084%=      5-min Rain = 0
KJU1 141525Z 02003KT 02/M00 A3041 RMK A01 T00211003  RH  084%=      5-min Rain = 0
KJU1 141526Z 01003KT 02/M00 A3041 RMK A01 T00221003  RH  084%=      5-min Rain = 0
KJU1 141527Z 06002KT 02/M00 A3041 RMK A01 T00221003  RH  083%=      5-min Rain = 0
KJU1 141528Z 14004KT 02/M00 A3041 RMK A01 T00231004  RH  083%=      5-min Rain = 0
KJU1 141529Z 13005KT 02/M01 A3041 RMK A01 T00241005  RH  081%=      5-min Rain = 0
KJU1 141530Z 07004KT 03/M01 A3041 RMK A01 T00251006  RH  080%=      5-min Rain = 0
KJU1 141531Z 05002KT 03/M01 A3041 RMK A01 T00251009  RH  078%=      5-min Rain = 0
KJU1 141532Z 07005KT 03/M01 A3041 RMK A01 T00251008  RH  079%=      5-min Rain = 0
KJU1 141533Z 09006KT 03/M01 A3041 RMK A01 T00271006  RH  079%=      5-min Rain = 0
KJU1 141534Z 11004KT 03/M01 A3041 RMK A01 T00271009  RH  077%=      5-min Rain = 0
KJU1 141535Z 10004KT 03/M01 A3041 RMK A01 T00251011  RH  077%=      5-min Rain = 0
KJU1 141536Z 07004KT 03/M01 A3041 RMK A01 T00261010  RH  077%=      5-min Rain = 0
KJU1 141537Z 08003KT 03/M01 A3041 RMK A01 T00271008  RH  078%=      5-min Rain = 0
KJU1 141538Z 15003KT 03/M01 A3041 RMK A01 T00281009  RH  077%=      5-min Rain = 0
KJU1 141539Z 12003KT 03/M01 A3041 RMK A01 T00291009  RH  076%=      5-min Rain = 0
KJU1 141540Z 11004KT 03/M01 A3041 RMK A01 T00311007  RH  076%=      5-min Rain = 0
KJU1 141541Z 10002KT 03/M01 A3041 RMK A01 T00311009  RH  075%=      5-min Rain = 0
KJU1 141542Z 05001KT 03/M01 A3041 RMK A01 T00311010  RH  074%=      5-min Rain = 0
KJU1 141543Z 02002KT 03/M01 A3041 RMK A01 T00321008  RH  075%=      5-min Rain = 0
KJU1 141544Z 08003KT 03/M01 A3041 RMK A01 T00321007  RH  075%=      5-min Rain = 0
KJU1 141545Z 10003KT 03/M01 A3041 RMK A01 T00321008  RH  075%=      5-min Rain = 0
KJU1 141546Z 09004KT 03/M01 A3041 RMK A01 T00331008  RH  075%=      5-min Rain = 0
KJU1 141547Z 14004KT 03/M01 A3041 RMK A01 T00331007  RH  075%=      5-min Rain = 0
KJU1 141548Z 14003KT 04/M01 A3041 RMK A01 T00351006  RH  075%=      5-min Rain = 0
KJU1 141549Z 16002KT 04/M00 A3041 RMK A01 T00371002  RH  076%=      5-min Rain = 0
KJU1 141550Z 12003KT 04/00 A3041 RMK A01 T00410002  RH  076%=      5-min Rain = 0
KJU1 141551Z 12003KT 04/M00 A3041 RMK A01 T00411002  RH  073%=      5-min Rain = 0
KJU1 141552Z 11003KT 04/M01 A3041 RMK A01 T00401005  RH  073%=      5-min Rain = 0
KJU1 141553Z 11003KT 04/M00 A3041 RMK A01 T00401004  RH  073%=      5-min Rain = 0
KJU1 141554Z 14004KT 04/M00 A3041 RMK A01 T00411003  RH  073%=      5-min Rain = 0
KJU1 141555Z 15003KT 04/M01 A3041 RMK A01 T00411006  RH  072%=      5-min Rain = 0
KJU1 141556Z 13002KT 04/M01 A3041 RMK A01 T00401005  RH  072%=      5-min Rain = 0
KJU1 141557Z 09004KT 04/M01 A3041 RMK A01 T00411005  RH  072%=      5-min Rain = 0
KJU1 141558Z 09002KT 04/M01 A3041 RMK A01 T00411005  RH  072%=      5-min Rain = 0
KJU1 141559Z 08002KT 04/M01 A3041 RMK A01 T00411005  RH  072%=      5-min Rain = 0
KJU1 141600Z 12004KT 04/M00 A3041 RMK A01 T00411004  RH  072%=      5-min Rain = 0
KJU1 141601Z 11005KT 04/M00 A3041 RMK A01 T00431002  RH  073%=      5-min Rain = 0
KJU1 141602Z 12004KT 04/M00 A3041 RMK A01 T00431004  RH  071%=      5-min Rain = 0
KJU1 141603Z 10002KT 04/M01 A3041 RMK A01 T00421007  RH  071%=      5-min Rain = 0
KJU1 141604Z 14001KT 04/M01 A304 RMK A01 T00421006  RH  071%=      5-min Rain = 0
KJU1 141605Z 10003KT 04/M00 A304 RMK A01 T00441002  RH  072%=      5-min Rain = 0
KJU1 141606Z 12005KT 05/M00 A304 RMK A01 T00461001  RH  071%=      5-min Rain = 0
KJU1 141607Z 12004KT 05/M00 A304 RMK A01 T00461002  RH  071%=      5-min Rain = 0
KJU1 141608Z 11004KT 05/M00 A304 RMK A01 T00461004  RH  070%=      5-min Rain = 0
KJU1 141609Z 10003KT 05/M00 A304 RMK A01 T00461002  RH  071%=      5-min Rain = 0
KJU1 141610Z 13003KT 05/00 A304 RMK A01 T00480002  RH  072%=      5-min Rain = 0
KJU1 141611Z 16003KT 05/00 A304 RMK A01 T00500001  RH  071%=      5-min Rain = 0
KJU1 141612Z 21000KT 05/M00 A304 RMK A01 T00501002  RH  069%=      5-min Rain = 0
KJU1 141613Z 22001KT 05/M00 A304 RMK A01 T00511001  RH  069%=      5-min Rain = 0
KJU1 141614Z 34001KT 05/00 A304 RMK A01 T00520000  RH  069%=      5-min Rain = 0
KJU1 141615Z 06002KT 05/M00 A304 RMK A01 T00521002  RH  068%=      5-min Rain = 0
KJU1 141616Z 08003KT 05/M00 A304 RMK A01 T00521001  RH  068%=      5-min Rain = 0
KJU1 141617Z 12003KT 05/M00 A304 RMK A01 T00531001  RH  069%=      5-min Rain = 0
KJU1 141618Z 11004KT 05/M00 A304 RMK A01 T00531001  RH  068%=      5-min Rain = 0
KJU1 141619Z 09003KT 05/M00 A304 RMK A01 T00531001  RH  068%=      5-min Rain = 0
KJU1 141620Z 09003KT 05/M00 A304 RMK A01 T00531001  RH  068%=      5-min Rain = 0
KJU1 141621Z 09004KT 05/M00 A304 RMK A01 T00531002  RH  068%=      5-min Rain = 0
KJU1 141622Z 10002KT 05/M00 A304 RMK A01 T00521004  RH  067%=      5-min Rain = 0
KJU1 141623Z 12002KT 05/M00 A304 RMK A01 T00511004  RH  067%=      5-min Rain = 0
KJU1 141624Z 13002KT 05/M00 A304 RMK A01 T00521002  RH  068%=      5-min Rain = 0
KJU1 141625Z 10002KT 05/00 A304 RMK A01 T00540001  RH  069%=      5-min Rain = 0
KJU1 141626Z 12003KT 06/00 A304 RMK A01 T00560000  RH  067%=      5-min Rain = 0
KJU1 141627Z 12004KT 06/00 A304 RMK A01 T005700-0  RH  067%=      5-min Rain = 0
KJU1 141628Z 11005KT 06/00 A304 RMK A01 T005800-0  RH  066%=      5-min Rain = 0
KJU1 141629Z 12004KT 06/00 A304 RMK A01 T00590001  RH  066%=      5-min Rain = 0
KJU1 141630Z 13004KT 06/00 A304 RMK A01 T00600000  RH  065%=      5-min Rain = 0
KJU1 141631Z 15008KT 06/00 A304 RMK A01 T00620002  RH  066%=      5-min Rain = 0
KJU1 141632Z 14005KT 06/00 A304 RMK A01 T00630000  RH  064%=      5-min Rain = 0
KJU1 141633Z 12004KT 06/M00 A304 RMK A01 T00611001  RH  064%=      5-min Rain = 0
KJU1 141634Z 13005KT 06/M00 A304 RMK A01 T00611002  RH  064%=      5-min Rain = 0
KJU1 141635Z 16004KT 06/M00 A304 RMK A01 T00611001  RH  064%=      5-min Rain = 0
KJU1 141636Z 20004KT 06/M00 A304 RMK A01 T00611001  RH  064%=      5-min Rain = 0
KJU1 141637Z 17006KT 06/00 A304 RMK A01 T00620001  RH  065%=      5-min Rain = 0
KJU1 141638Z 16004KT 06/M00 A304 RMK A01 T00631002  RH  063%=      5-min Rain = 0
KJU1 141639Z 17001KT 06/M01 A304 RMK A01 T00631006  RH  062%=      5-min Rain = 0
KJU1 141640Z 15000KT 06/M00 A304 RMK A01 T00631003  RH  063%=      5-min Rain = 0
KJU1 141641Z 20003KT 07/00 A304 RMK A01 T00660001  RH  063%=      5-min Rain = 0
KJU1 141642Z 20003KT 07/M00 A304 RMK A01 T00651003  RH  061%=      5-min Rain = 0
KJU1 141643Z 19004KT 06/M00 A304 RMK A01 T00641003  RH  062%=      5-min Rain = 0
KJU1 141644Z 20004KT 07/M00 A304 RMK A01 T00651003  RH  062%=      5-min Rain = 0
KJU1 141645Z 19005KT 07/M00 A304 RMK A01 T00651004  RH  062%=      5-min Rain = 0
KJU1 141646Z 19005KT 07/M00 A304 RMK A01 T00651002  RH  062%=      5-min Rain = 0
KJU1 141647Z 19003KT 07/00 A304 RMK A01 T00680001  RH  063%=      5-min Rain = 0
KJU1 141648Z 18004KT 07/00 A304 RMK A01 T006800-0  RH  062%=      5-min Rain = 0
KJU1 141649Z 22003KT 07/M00 A304 RMK A01 T00681004  RH  060%=      5-min Rain = 0
KJU1 141650Z 22003KT 07/M00 A304 RMK A01 T00671004  RH  060%=      5-min Rain = 0
KJU1 141651Z 22004KT 07/M00 A304 RMK A01 T00671003  RH  061%=      5-min Rain = 0
KJU1 141652Z 19006KT 07/00 A304 RMK A01 T00710004  RH  062%=      5-min Rain = 0
KJU1 141653Z 21005KT 07/00 A304 RMK A01 T00740004  RH  061%=      5-min Rain = 0
KJU1 141654Z 18005KT 07/M00 A304 RMK A01 T00741002  RH  059%=      5-min Rain = 0
KJU1 141655Z 17005KT 07/M01 A304 RMK A01 T00721005  RH  058%=      5-min Rain = 0
KJU1 141656Z 15006KT 07/M00 A304 RMK A01 T00721003  RH  059%=      5-min Rain = 0
KJU1 141657Z 14006KT 08/M00 A304 RMK A01 T00751001  RH  058%=      5-min Rain = 0
KJU1 141658Z 15006KT 08/00 A304 RMK A01 T00760001  RH  059%=      5-min Rain = 0
KJU1 141659Z 15006KT 08/M00 A304 RMK A01 T00771002  RH  057%=      5-min Rain = 0
KJU1 141700Z 14006KT 08/M00 A3039 RMK A01 T00761002  RH  058%=      5-min Rain = 0
KJU1 141701Z 15005KT 08/M00 A3039 RMK A01 T00761001  RH  058%=      5-min Rain = 0
KJU1 141702Z 16004KT 08/M00 A3039 RMK A01 T00761001  RH  058%=      5-min Rain = 0
KJU1 141703Z 15004KT 08/M00 A3039 RMK A01 T00771001  RH  058%=      5-min Rain = 0
KJU1 141704Z 16005KT 08/M00 A3039 RMK A01 T00781001  RH  057%=      5-min Rain = 0
KJU1 141705Z 17005KT 08/00 A3039 RMK A01 T00800001  RH  057%=      5-min Rain = 0
KJU1 141706Z 18006KT 08/M00 A3039 RMK A01 T00801001  RH  057%=      5-min Rain = 0
KJU1 141707Z 20005KT 08/M00 A3039 RMK A01 T00781003  RH  056%=      5-min Rain = 0
KJU1 141708Z 19004KT 08/00 A3039 RMK A01 T00790003  RH  059%=      5-min Rain = 0
KJU1 141709Z 12003KT 08/00 A3039 RMK A01 T00810001  RH  057%=      5-min Rain = 0
KJU1 141710Z 15006KT 08/00 A3039 RMK A01 T00830002  RH  057%=      5-min Rain = 0
KJU1 141711Z 14008KT 09/00 A3039 RMK A01 T00850003  RH  056%=      5-min Rain = 0
KJU1 141712Z 14008KT 08/M00 A3039 RMK A01 T00841001  RH  055%=      5-min Rain = 0
KJU1 141713Z 13007KT 08/00 A3039 RMK A01 T00820000  RH  056%=      5-min Rain = 0
KJU1 141714Z 13006KT 08/00 A3039 RMK A01 T00830003  RH  057%=      5-min Rain = 0
KJU1 141715Z 13006KT 08/00 A3039 RMK A01 T00830001  RH  056%=      5-min Rain = 0
KJU1 141716Z 13004KT 08/00 A3039 RMK A01 T008300-0  RH  056%=      5-min Rain = 0
KJU1 141717Z 15004KT 08/01 A3039 RMK A01 T00830005  RH  058%=      5-min Rain = 0
KJU1 141718Z 18003KT 09/00 A3039 RMK A01 T00850003  RH  056%=      5-min Rain = 0
KJU1 141719Z 20006KT 09/M00 A3039 RMK A01 T00851001  RH  055%=      5-min Rain = 0
KJU1 141720Z 20005KT 09/M00 A3039 RMK A01 T00851002  RH  054%=      5-min Rain = 0
KJU1 141721Z 20004KT 09/M00 A3039 RMK A01 T00851003  RH  054%=      5-min Rain = 0
KJU1 141722Z 17005KT 09/M00 A3039 RMK A01 T00851004  RH  054%=      5-min Rain = 0
KJU1 141723Z 17003KT 09/M00 A3039 RMK A01 T00861004  RH  053%=      5-min Rain = 0
KJU1 141724Z 18005KT 09/M01 A3039 RMK A01 T00871006  RH  052%=      5-min Rain = 0
KJU1 141725Z 19007KT 09/M00 A3039 RMK A01 T00881003  RH  053%=      5-min Rain = 0
KJU1 141726Z 19006KT 09/M00 A3039 RMK A01 T00891002  RH  053%=      5-min Rain = 0
KJU1 141727Z 19007KT 09/M00 A3039 RMK A01 T00891003  RH  052%=      5-min Rain = 0
KJU1 141728Z 20004KT 09/M00 A3039 RMK A01 T00881004  RH  052%=      5-min Rain = 0
KJU1 141729Z 21004KT 09/M00 A3039 RMK A01 T00891003  RH  053%=      5-min Rain = 0
KJU1 141730Z 18005KT 09/M00 A3038 RMK A01 T00891001  RH  053%=      5-min Rain = 0
KJU1 141731Z 18006KT 09/00 A3038 RMK A01 T00910003  RH  054%=      5-min Rain = 0
KJU1 141732Z 19006KT 09/00 A3038 RMK A01 T00930000  RH  052%=      5-min Rain = 0
KJU1 141733Z 18005KT 09/00 A3038 RMK A01 T009200-0  RH  052%=      5-min Rain = 0
KJU1 141734Z 20005KT 09/00 A3038 RMK A01 T00920003  RH  054%=      5-min Rain = 0
KJU1 141735Z 21005KT 09/00 A3038 RMK A01 T00930001  RH  052%=      5-min Rain = 0
KJU1 141736Z 20005KT 09/M00 A3038 RMK A01 T00921003  RH  051%=      5-min Rain = 0
KJU1 141737Z 22005KT 09/M00 A3038 RMK A01 T00901004  RH  052%=      5-min Rain = 0
KJU1 141738Z 21004KT 09/00 A3038 RMK A01 T009100-0  RH  053%=      5-min Rain = 0
KJU1 141739Z 14004KT 09/01 A3038 RMK A01 T00940007  RH  055%=      5-min Rain = 0
KJU1 141740Z 14006KT 10/00 A3038 RMK A01 T00960003  RH  052%=      5-min Rain = 0
KJU1 141741Z 13007KT 10/00 A3038 RMK A01 T009600-0  RH  051%=      5-min Rain = 0
KJU1 141742Z 12005KT 10/00 A3038 RMK A01 T00950000  RH  051%=      5-min Rain = 0
KJU1 141743Z 14004KT 10/00 A3038 RMK A01 T00950000  RH  051%=      5-min Rain = 0
KJU1 141744Z 13003KT 10/00 A3038 RMK A01 T00950001  RH  052%=      5-min Rain = 0
KJU1 141745Z 15006KT 10/01 A3037 RMK A01 T00970006  RH  053%=      5-min Rain = 0
KJU1 141746Z 16003KT 10/01 A3037 RMK A01 T00990006  RH  053%=      5-min Rain = 0
KJU1 141747Z 14004KT 10/01 A3037 RMK A01 T01000007  RH  053%=      5-min Rain = 0
KJU1 141748Z 11005KT 10/01 A3037 RMK A01 T01020010  RH  053%=      5-min Rain = 0
KJU1 141749Z 13005KT 10/00 A3037 RMK A01 T01020004  RH  051%=      5-min Rain = 0
KJU1 141750Z 14005KT 10/00 A3037 RMK A01 T01000002  RH  051%=      5-min Rain = 0
KJU1 141751Z 19004KT 10/01 A3037 RMK A01 T01000005  RH  052%=      5-min Rain = 0
KJU1 141752Z 20005KT 10/00 A3037 RMK A01 T01010004  RH  051%=      5-min Rain = 0
KJU1 141753Z 15003KT 10/00 A3037 RMK A01 T010100-0  RH  049%=      5-min Rain = 0
KJU1 141754Z 20002KT 10/00 A3037 RMK A01 T01010001  RH  050%=      5-min Rain = 0
KJU1 141755Z 21005KT 10/00 A3037 RMK A01 T01020003  RH  050%=      5-min Rain = 0
KJU1 141756Z 22007KT 10/M00 A3037 RMK A01 T01031001  RH  049%=      5-min Rain = 0
KJU1 141757Z 22006KT 10/M00 A3037 RMK A01 T01021001  RH  049%=      5-min Rain = 0
KJU1 141758Z 19009KT 10/00 A3037 RMK A01 T01030002  RH  049%=      5-min Rain = 0
KJU1 141759Z 15007KT 11/00 A3037 RMK A01 T01060004  RH  049%=      5-min Rain = 0
KJU1 141800Z 15006KT 11/00 A3037 RMK A01 T01060002  RH  049%=      5-min Rain = 0
KJU1 141801Z 19005KT 11/00 A3037 RMK A01 T01060003  RH  049%=      5-min Rain = 0
KJU1 141802Z 16005KT 11/01 A3037 RMK A01 T01070010  RH  051%=      5-min Rain = 0
KJU1 141803Z 15005KT 11/01 A3037 RMK A01 T01090005  RH  049%=      5-min Rain = 0
KJU1 141804Z 16004KT 11/00 A3037 RMK A01 T01080003  RH  048%=      5-min Rain = 0
KJU1 141805Z 15007KT 11/00 A3037 RMK A01 T01090002  RH  048%=      5-min Rain = 0
KJU1 141806Z 17006KT 11/01 A3037 RMK A01 T01090005  RH  048%=      5-min Rain = 0
KJU1 141807Z 16007KT 11/00 A3037 RMK A01 T01090003  RH  048%=      5-min Rain = 0
KJU1 141808Z 15005KT 11/M00 A3037 RMK A01 T01081003  RH  046%=      5-min Rain = 0
KJU1 141809Z 16007KT 11/00 A3037 RMK A01 T01070001  RH  048%=      5-min Rain = 0
KJU1 141810Z 14008KT 11/00 A3037 RMK A01 T01090004  RH  048%=      5-min Rain = 0
KJU1 141811Z 14003KT 11/00 A3037 RMK A01 T01100002  RH  047%=      5-min Rain = 0
KJU1 141812Z 11003KT 11/M00 A3036 RMK A01 T01081002  RH  046%=      5-min Rain = 0
KJU1 141813Z 12008KT 11/00 A3036 RMK A01 T010900-0  RH  047%=      5-min Rain = 0
KJU1 141814Z 13010KT 11/01 A3036 RMK A01 T01110005  RH  048%=      5-min Rain = 0
KJU1 141815Z 13009KT 11/00 A3036 RMK A01 T01120001  RH  046%=      5-min Rain = 0
KJU1 141816Z 13007KT 11/00 A3036 RMK A01 T01110003  RH  047%=      5-min Rain = 0
KJU1 141817Z 15008KT 11/00 A3036 RMK A01 T01120001  RH  046%=      5-min Rain = 0
KJU1 141818Z 15008KT 11/M00 A3036 RMK A01 T01121002  RH  045%=      5-min Rain = 0
KJU1 141819Z 15006KT 11/M00 A3036 RMK A01 T01131001  RH  046%=      5-min Rain = 0
KJU1 141820Z 18005KT 11/00 A3036 RMK A01 T01130002  RH  046%=      5-min Rain = 0
KJU1 141821Z 20006KT 11/00 A3036 RMK A01 T01140002  RH  046%=      5-min Rain = 0
KJU1 141822Z 17006KT 11/M00 A3036 RMK A01 T01141003  RH  045%=      5-min Rain = 0
KJU1 141823Z 18005KT 11/M00 A3036 RMK A01 T01121003  RH  045%=      5-min Rain = 0
KJU1 141824Z 19004KT 11/00 A3036 RMK A01 T011300-0  RH  046%=      5-min Rain = 0
KJU1 141825Z 20001KT 11/M00 A3036 RMK A01 T01141001  RH  045%=      5-min Rain = 0
KJU1 141826Z 12004KT 11/00 A3035 RMK A01 T01140003  RH  046%=      5-min Rain = 0
KJU1 141827Z 17007KT 12/01 A3035 RMK A01 T01180008  RH  047%=      5-min Rain = 0
KJU1 141828Z 19007KT 12/00 A3035 RMK A01 T01190004  RH  045%=      5-min Rain = 0
KJU1 141829Z 21006KT 12/01 A3035 RMK A01 T01190005  RH  045%=      5-min Rain = 0
KJU1 141830Z 22004KT 12/M00 A3035 RMK A01 T01171002  RH  044%=      5-min Rain = 0
KJU1 141831Z 21006KT 12/00 A3035 RMK A01 T01160001  RH  045%=      5-min Rain = 0
KJU1 141832Z 21005KT 12/00 A3035 RMK A01 T01170002  RH  045%=      5-min Rain = 0
KJU1 141833Z 18003G8KT 12/00 A3035 RMK A01 T011700-0  RH  045%=      5-min Rain = 0
KJU1 141834Z 18006KT 12/00 A3035 RMK A01 T01170002  RH  045%=      5-min Rain = 0
KJU1 141835Z 18003KT 12/M00 A3035 RMK A01 T01161001  RH  044%=      5-min Rain = 0
KJU1 141836Z 18004KT 12/00 A3035 RMK A01 T01160003  RH  046%=      5-min Rain = 0
KJU1 141837Z 18008KT 12/01 A3035 RMK A01 T01190005  RH  046%=      5-min Rain = 0
KJU1 141838Z 18007KT 12/01 A3035 RMK A01 T01190005  RH  046%=      5-min Rain = 0
KJU1 141839Z 19006KT 12/00 A3035 RMK A01 T01190003  RH  045%=      5-min Rain = 0
KJU1 141840Z 20006KT 12/00 A3035 RMK A01 T01180003  RH  045%=      5-min Rain = 0
KJU1 141841Z 21003KT 12/00 A3034 RMK A01 T01160000  RH  045%=      5-min Rain = 0
KJU1 141842Z 24003KT 12/01 A3034 RMK A01 T01160005  RH  046%=      5-min Rain = 0
KJU1 141843Z 23002KT 12/00 A3034 RMK A01 T01170003  RH  045%=      5-min Rain = 0
KJU1 141844Z 22005KT 12/01 A3034 RMK A01 T01180007  RH  046%=      5-min Rain = 0
KJU1 141845Z 22004KT 12/00 A3034 RMK A01 T01190001  RH  044%=      5-min Rain = 0
KJU1 141846Z 21003KT 12/01 A3034 RMK A01 T01190005  RH  046%=      5-min Rain = 0
KJU1 141847Z 23003KT 12/01 A3034 RMK A01 T01210010  RH  047%=      5-min Rain = 0
KJU1 141848Z 16007KT 12/01 A3034 RMK A01 T01220008  RH  046%=      5-min Rain = 0
KJU1 141849Z 15006KT 12/01 A3034 RMK A01 T01240007  RH  045%=      5-min Rain = 0
KJU1 141850Z 14007KT 12/01 A3033 RMK A01 T01240006  RH  044%=      5-min Rain = 0
KJU1 141851Z 15010KT 13/01 A3033 RMK A01 T01250005  RH  044%=      5-min Rain = 0
KJU1 141852Z 12006KT 12/M00 A3033 RMK A01 T01241001  RH  042%=      5-min Rain = 0
KJU1 141853Z 20005KT 12/01 A3033 RMK A01 T01230005  RH  045%=      5-min Rain = 0
KJU1 141854Z 20008KT 13/01 A3033 RMK A01 T01250006  RH  044%=      5-min Rain = 0
KJU1 141855Z 17009KT 13/00 A3033 RMK A01 T01250003  RH  043%=      5-min Rain = 0
KJU1 141856Z 18008KT 13/00 A3033 RMK A01 T012500-0  RH  042%=      5-min Rain = 0
KJU1 141857Z 20007KT 12/00 A3033 RMK A01 T01240002  RH  043%=      5-min Rain = 0
KJU1 141858Z 20007KT 13/00 A3032 RMK A01 T01250004  RH  044%=      5-min Rain = 0
KJU1 141859Z 20008KT 12/00 A3032 RMK A01 T01240001  RH  043%=      5-min Rain = 0
KJU1 141900Z 21006KT 12/00 A3032 RMK A01 T01240002  RH  043%=      5-min Rain = 0
KJU1 141901Z 23005KT 12/M00 A3032 RMK A01 T01241001  RH  042%=      5-min Rain = 0
KJU1 141902Z 21007KT 12/00 A3032 RMK A01 T01230001  RH  043%=      5-min Rain = 0
KJU1 141903Z 16006KT 13/01 A3032 RMK A01 T01260010  RH  045%=      5-min Rain = 0
KJU1 141904Z 14007KT 13/01 A3032 RMK A01 T01290009  RH  044%=      5-min Rain = 0
KJU1 141905Z 14008KT 13/01 A3032 RMK A01 T01310005  RH  042%=      5-min Rain = 0
KJU1 141906Z 16005KT 13/00 A3032 RMK A01 T01290001  RH  041%=      5-min Rain = 0
KJU1 141907Z 19007KT 13/01 A3032 RMK A01 T01300010  RH  044%=      5-min Rain = 0
KJU1 141908Z 20007KT 13/01 A3032 RMK A01 T01340009  RH  042%=      5-min Rain = 0
KJU1 141909Z 20004KT 13/00 A3032 RMK A01 T01320001  RH  041%=      5-min Rain = 0
KJU1 141910Z 18004KT 13/00 A3032 RMK A01 T01310002  RH  041%=      5-min Rain = 0
KJU1 141911Z 17004KT 13/M00 A3032 RMK A01 T01311001  RH  040%=      5-min Rain = 0
KJU1 141912Z 17006KT 13/01 A3032 RMK A01 T01320007  RH  043%=      5-min Rain = 0
KJU1 141913Z 16008KT 13/01 A3032 RMK A01 T01340007  RH  042%=      5-min Rain = 0
KJU1 141914Z 15011KT 14/01 A3031 RMK A01 T01350005  RH  041%=      5-min Rain = 0
KJU1 141915Z 14008KT 13/00 A3031 RMK A01 T01340000  RH  040%=      5-min Rain = 0
KJU1 141916Z 14010KT 13/00 A3031 RMK A01 T013200-0  RH  040%=      5-min Rain = 0
KJU1 141917Z 16008KT 13/00 A3031 RMK A01 T01320001  RH  040%=      5-min Rain = 0
KJU1 141918Z 15008KT 13/01 A3031 RMK A01 T01330006  RH  042%=      5-min Rain = 0
KJU1 141919Z 16010KT 13/00 A3031 RMK A01 T01340001  RH  040%=      5-min Rain = 0
KJU1 141920Z 18007KT 13/00 A3031 RMK A01 T01340002  RH  041%=      5-min Rain = 0
KJU1 141921Z 16007KT 13/01 A3031 RMK A01 T01340005  RH  041%=      5-min Rain = 0
KJU1 141922Z 13006KT 14/01 A3031 RMK A01 T01360006  RH  041%=      5-min Rain = 0
KJU1 141923Z 16007KT 14/01 A3031 RMK A01 T01360005  RH  041%=      5-min Rain = 0
KJU1 141924Z 15006KT 14/01 A3031 RMK A01 T01370006  RH  041%=      5-min Rain = 0
KJU1 141925Z 17008KT 14/01 A3031 RMK A01 T01380005  RH  040%=      5-min Rain = 0
KJU1 141926Z 17007KT 14/M00 A3031 RMK A01 T01371004  RH  038%=      5-min Rain = 0
KJU1 141927Z 19009KT 14/00 A3031 RMK A01 T01370002  RH  040%=      5-min Rain = 0
KJU1 141928Z 19010KT 14/00 A3031 RMK A01 T01380003  RH  040%=      5-min Rain = 0
KJU1 141929Z 18008KT 14/00 A3031 RMK A01 T01380002  RH  039%=      5-min Rain = 0
KJU1 141930Z 19009KT 14/00 A3031 RMK A01 T01380003  RH  040%=      5-min Rain = 0
KJU1 141931Z 18009KT 14/M00 A303 RMK A01 T01381001  RH  038%=      5-min Rain = 0
KJU1 141932Z 18010KT 14/00 A303 RMK A01 T01370001  RH  039%=      5-min Rain = 0
KJU1 141933Z 18008KT 14/00 A303 RMK A01 T01370003  RH  040%=      5-min Rain = 0
KJU1 141934Z 18009KT 14/00 A303 RMK A01 T01370003  RH  040%=      5-min Rain = 0
KJU1 141935Z 18007KT 14/M00 A303 RMK A01 T01371001  RH  039%=      5-min Rain = 0
KJU1 141936Z 19004KT 14/M00 A303 RMK A01 T01371001  RH  039%=      5-min Rain = 0
KJU1 141937Z 18003KT 14/00 A303 RMK A01 T013600-0  RH  039%=      5-min Rain = 0
KJU1 141938Z 14009G14KT 14/00 A303 RMK A01 T01360003  RH  040%=      5-min Rain = 0
KJU1 141939Z 15009KT 14/00 A303 RMK A01 T01380000  RH  039%=      5-min Rain = 0
KJU1 141940Z 16007KT 14/M00 A303 RMK A01 T01371004  RH  038%=      5-min Rain = 0
KJU1 141941Z 16006KT 14/00 A303 RMK A01 T01370004  RH  040%=      5-min Rain = 0
KJU1 141942Z 15006KT 14/01 A303 RMK A01 T01420007  RH  040%=      5-min Rain = 0
KJU1 141943Z 17005KT 14/01 A3029 RMK A01 T01430005  RH  039%=      5-min Rain = 0
KJU1 141944Z 16007KT 14/01 A3029 RMK A01 T01430005  RH  039%=      5-min Rain = 0
KJU1 141945Z 19006KT 14/01 A3029 RMK A01 T01430006  RH  039%=      5-min Rain = 0
KJU1 141946Z 19008KT 14/01 A3029 RMK A01 T01440007  RH  039%=      5-min Rain = 0
KJU1 141947Z 18007KT 15/01 A3029 RMK A01 T01450011  RH  040%=      5-min Rain = 0
KJU1 141948Z 18008KT 15/01 A3029 RMK A01 T01460012  RH  040%=      5-min Rain = 0
KJU1 141949Z 13007KT 15/00 A3029 RMK A01 T01460002  RH  037%=      5-min Rain = 0
KJU1 141950Z 15008KT 14/00 A3029 RMK A01 T01430004  RH  039%=      5-min Rain = 0
KJU1 141951Z 16007KT 14/01 A3029 RMK A01 T01430010  RH  040%=      5-min Rain = 0
KJU1 141952Z 16008KT 15/01 A3029 RMK A01 T01450010  RH  040%=      5-min Rain = 0
KJU1 141953Z 17008KT 15/00 A3029 RMK A01 T01450002  RH  037%=      5-min Rain = 0
KJU1 141954Z 18007G12KT 14/00 A3029 RMK A01 T014300-0  RH  037%=      5-min Rain = 0
KJU1 141955Z 17009KT 14/00 A3028 RMK A01 T01420000  RH  038%=      5-min Rain = 0
KJU1 141956Z 16009KT 14/00 A3028 RMK A01 T01420001  RH  038%=      5-min Rain = 0
KJU1 141957Z 19009KT 14/M00 A3028 RMK A01 T01411001  RH  038%=      5-min Rain = 0
KJU1 141958Z 21009KT 14/M00 A3028 RMK A01 T01421001  RH  038%=      5-min Rain = 0
KJU1 141959Z 18008KT 14/01 A3028 RMK A01 T01430005  RH  039%=      5-min Rain = 0
KJU1 142000Z 20008KT 15/00 A3028 RMK A01 T01460004  RH  038%=      5-min Rain = 0
KJU1 142001Z 20008KT 15/M00 A3028 RMK A01 T01451003  RH  036%=      5-min Rain = 0
KJU1 142002Z 20009KT 14/00 A3028 RMK A01 T01430000  RH  038%=      5-min Rain = 0
KJU1 142003Z 21010KT 14/00 A3028 RMK A01 T014300-0  RH  037%=      5-min Rain = 0
KJU1 142004Z 21011KT 14/00 A3028 RMK A01 T01440001  RH  038%=      5-min Rain = 0
KJU1 142005Z 18008G13KT 15/00 A3028 RMK A01 T01450003  RH  038%=      5-min Rain = 0
KJU1 142006Z 17007KT 15/01 A3028 RMK A01 T01470008  RH  039%=      5-min Rain = 0
KJU1 142007Z 15010KT 15/01 A3028 RMK A01 T01490006  RH  038%=      5-min Rain = 0
KJU1 142008Z 16010KT 15/M00 A3028 RMK A01 T01451003  RH  036%=      5-min Rain = 0
KJU1 142009Z 17009KT 14/M00 A3028 RMK A01 T01431001  RH  037%=      5-min Rain = 0
KJU1 142010Z 18008KT 14/00 A3028 RMK A01 T01430001  RH  038%=      5-min Rain = 0
KJU1 142011Z 17007KT 14/00 A3028 RMK A01 T01440003  RH  038%=      5-min Rain = 0
KJU1 142012Z 17007KT 15/M00 A3028 RMK A01 T01451002  RH  037%=      5-min Rain = 0
KJU1 142013Z 16010KT 14/00 A3028 RMK A01 T01440001  RH  038%=      5-min Rain = 0
KJU1 142014Z 14007KT 14/00 A3028 RMK A01 T01440001  RH  038%=      5-min Rain = 0
KJU1 142015Z 14006G11KT 14/M00 A3028 RMK A01 T01441001  RH  037%=      5-min Rain = 0
KJU1 142016Z 15009KT 15/01 A3028 RMK A01 T01450006  RH  039%=      5-min Rain = 0
KJU1 142017Z 14012KT 15/01 A3028 RMK A01 T01480008  RH  038%=      5-min Rain = 0
KJU1 142018Z 16008KT 15/00 A3028 RMK A01 T014700-0  RH  036%=      5-min Rain = 0
KJU1 142019Z 18010KT 15/00 A3028 RMK A01 T01450000  RH  037%=      5-min Rain = 0
KJU1 142020Z 20009KT 15/00 A3027 RMK A01 T01450003  RH  038%=      5-min Rain = 0
KJU1 142021Z 20008KT 15/00 A3027 RMK A01 T01450004  RH  038%=      5-min Rain = 0
KJU1 142022Z 19006KT 15/01 A3027 RMK A01 T01460005  RH  038%=      5-min Rain = 0
KJU1 142023Z 19005KT 15/00 A3027 RMK A01 T01460003  RH  038%=      5-min Rain = 0
KJU1 142024Z 17005KT 15/01 A3027 RMK A01 T01470005  RH  038%=      5-min Rain = 0
KJU1 142025Z 15004KT 15/M00 A3027 RMK A01 T01461003  RH  036%=      5-min Rain = 0
KJU1 142026Z 17007KT 15/00 A3027 RMK A01 T01460004  RH  038%=      5-min Rain = 0
KJU1 142027Z 17008KT 15/01 A3027 RMK A01 T01490010  RH  039%=      5-min Rain = 0
KJU1 142028Z 17007KT 15/01 A3027 RMK A01 T01500007  RH  038%=      5-min Rain = 0
KJU1 142029Z 15006KT 15/01 A3027 RMK A01 T01500007  RH  038%=      5-min Rain = 0
KJU1 142030Z 13007KT 15/00 A3027 RMK A01 T01500002  RH  037%=      5-min Rain = 0
KJU1 142031Z 14008KT 15/00 A3027 RMK A01 T01490004  RH  037%=      5-min Rain = 0
KJU1 142032Z 16005KT 15/00 A3027 RMK A01 T014800-0  RH  036%=      5-min Rain = 0
KJU1 142033Z 17010KT 15/01 A3027 RMK A01 T01490007  RH  038%=      5-min Rain = 0
KJU1 142034Z 15010KT 15/01 A3027 RMK A01 T01510009  RH  038%=      5-min Rain = 0
KJU1 142035Z 15009KT 15/01 A3027 RMK A01 T01530009  RH  038%=      5-min Rain = 0
KJU1 142036Z 14011KT 15/01 A3027 RMK A01 T01530005  RH  036%=      5-min Rain = 0
KJU1 142037Z 15009KT 15/01 A3027 RMK A01 T01510007  RH  038%=      5-min Rain = 0
KJU1 142038Z 14007G12KT 15/01 A3027 RMK A01 T01510008  RH  038%=      5-min Rain = 0
KJU1 142039Z 15004KT 15/01 A3027 RMK A01 T01500005  RH  037%=      5-min Rain = 0
KJU1 142040Z 17008KT 15/01 A3027 RMK A01 T01500007  RH  038%=      5-min Rain = 0
KJU1 142041Z 18008KT 15/01 A3027 RMK A01 T01500005  RH  037%=      5-min Rain = 0
KJU1 142042Z 17009KT 15/01 A3027 RMK A01 T01510009  RH  038%=      5-min Rain = 0
KJU1 142043Z 17007KT 15/01 A3027 RMK A01 T01510005  RH  037%=      5-min Rain = 0
KJU1 142044Z 18009KT 15/01 A3027 RMK A01 T01510011  RH  039%=      5-min Rain = 0
KJU1 142045Z 19006KT 15/01 A3027 RMK A01 T01510009  RH  038%=      5-min Rain = 0
KJU1 142046Z 18006KT 15/00 A3027 RMK A01 T01510004  RH  037%=      5-min Rain = 0
KJU1 142047Z 19006KT 15/01 A3027 RMK A01 T01510005  RH  037%=      5-min Rain = 0
KJU1 142048Z 18007KT 15/01 A3027 RMK A01 T01510006  RH  037%=      5-min Rain = 0
KJU1 142049Z 16013KT 15/01 A3027 RMK A01 T01520006  RH  037%=      5-min Rain = 0
KJU1 142050Z 18009KT 15/00 A3027 RMK A01 T01520004  RH  037%=      5-min Rain = 0
KJU1 142051Z 17010KT 15/01 A3027 RMK A01 T01510008  RH  038%=      5-min Rain = 0
KJU1 142052Z 16010KT 15/01 A3027 RMK A01 T01520005  RH  037%=      5-min Rain = 0
KJU1 142053Z 15007KT 15/00 A3027 RMK A01 T01510004  RH  037%=      5-min Rain = 0
KJU1 142054Z 17004KT 15/00 A3027 RMK A01 T01510000  RH  036%=      5-min Rain = 0
KJU1 142055Z 20005KT 15/01 A3027 RMK A01 T01510005  RH  037%=      5-min Rain = 0
KJU1 142056Z 21007KT 15/00 A3026 RMK A01 T01530004  RH  036%=      5-min Rain = 0
KJU1 142057Z 19007KT 15/01 A3026 RMK A01 T01530009  RH  037%=      5-min Rain = 0
KJU1 142058Z 16006KT 16/01 A3026 RMK A01 T01550010  RH  037%=      5-min Rain = 0
KJU1 142059Z 11003G10KT 16/00 A3026 RMK A01 T01550002  RH  035%=      5-min Rain = 0
KJU1 142100Z 14010KT 16/00 A3026 RMK A01 T01550003  RH  035%=      5-min Rain = 0
KJU1 142101Z 13010KT 16/00 A3027 RMK A01 T01550003  RH  036%=      5-min Rain = 0
KJU1 142102Z 12009KT 15/00 A3027 RMK A01 T01540001  RH  035%=      5-min Rain = 0
KJU1 142103Z 15008KT 15/01 A3026 RMK A01 T01530008  RH  037%=      5-min Rain = 0
KJU1 142104Z 16006KT 15/01 A3026 RMK A01 T01540005  RH  036%=      5-min Rain = 0
KJU1 142105Z 13007G12KT 15/01 A3027 RMK A01 T01540009  RH  037%=      5-min Rain = 0
KJU1 142106Z 12008KT 15/M00 A3027 RMK A01 T01531002  RH  035%=      5-min Rain = 0
KJU1 142107Z 14008KT 15/M00 A3026 RMK A01 T01501001  RH  035%=      5-min Rain = 0
KJU1 142108Z 14007KT 15/00 A3026 RMK A01 T01500003  RH  037%=      5-min Rain = 0
KJU1 142109Z 14006KT 15/00 A3026 RMK A01 T01510001  RH  036%=      5-min Rain = 0
KJU1 142110Z 13005KT 15/01 A3026 RMK A01 T01520006  RH  037%=      5-min Rain = 0
KJU1 142111Z 13004KT 15/01 A3026 RMK A01 T01530005  RH  036%=      5-min Rain = 0
KJU1 142112Z 13008G13KT 15/01 A3026 RMK A01 T01540005  RH  036%=      5-min Rain = 0
KJU1 142113Z 13011KT 15/00 A3026 RMK A01 T01540004  RH  036%=      5-min Rain = 0
KJU1 142114Z 16007KT 15/01 A3026 RMK A01 T01540006  RH  037%=      5-min Rain = 0
KJU1 142115Z 18006KT 16/01 A3026 RMK A01 T01550008  RH  037%=      5-min Rain = 0
KJU1 142116Z 15006KT 16/01 A3026 RMK A01 T01550005  RH  036%=      5-min Rain = 0
KJU1 142117Z 13009KT 16/01 A3026 RMK A01 T01560008  RH  037%=      5-min Rain = 0
KJU1 142118Z 12010KT 16/00 A3026 RMK A01 T01560001  RH  035%=      5-min Rain = 0
KJU1 142119Z 13009KT 15/M01 A3026 RMK A01 T01521006  RH  034%=      5-min Rain = 0
KJU1 142120Z 13007KT 15/M01 A3026 RMK A01 T01501008  RH  034%=      5-min Rain = 0
KJU1 142121Z 14005KT 15/M01 A3026 RMK A01 T01491005  RH  035%=      5-min Rain = 0
KJU1 142122Z 15007KT 15/M00 A3026 RMK A01 T01501004  RH  035%=      5-min Rain = 0
KJU1 142123Z 15010KT 15/M00 A3026 RMK A01 T01521001  RH  035%=      5-min Rain = 0
KJU1 142124Z 16010KT 15/M00 A3026 RMK A01 T01541001  RH  035%=      5-min Rain = 0
KJU1 142125Z 16007KT 15/00 A3026 RMK A01 T01540002  RH  036%=      5-min Rain = 0
KJU1 142126Z 15004KT 15/M00 A3026 RMK A01 T01531003  RH  034%=      5-min Rain = 0
KJU1 142127Z 17004KT 15/00 A3026 RMK A01 T01530001  RH  036%=      5-min Rain = 0
KJU1 142128Z 15005KT 15/01 A3026 RMK A01 T01540006  RH  036%=      5-min Rain = 0
KJU1 142129Z 17005KT 16/M00 A3026 RMK A01 T01561001  RH  034%=      5-min Rain = 0
KJU1 142130Z 17010G16KT 16/00 A3026 RMK A01 T01560001  RH  035%=      5-min Rain = 0
KJU1 142131Z 15012KT 16/M01 A3025 RMK A01 T01571006  RH  033%=      5-min Rain = 0
KJU1 142132Z 14012KT 16/M01 A3025 RMK A01 T01551013  RH  032%=      5-min Rain = 0
KJU1 142133Z 15010KT 15/M01 A3025 RMK A01 T01541014  RH  032%=      5-min Rain = 0
KJU1 142134Z 14007KT 15/M01 A3025 RMK A01 T01541011  RH  032%=      5-min Rain = 0
KJU1 142135Z 14006KT 16/M01 A3025 RMK A01 T01561006  RH  033%=      5-min Rain = 0
KJU1 142136Z 14011KT 16/M01 A3025 RMK A01 T01581005  RH  033%=      5-min Rain = 0
KJU1 142137Z 13012KT 16/M02 A3025 RMK A01 T01591019  RH  030%=      5-min Rain = 0
KJU1 142138Z 16011KT 16/M02 A3025 RMK A01 T01561022  RH  029%=      5-min Rain = 0
KJU1 142139Z 16010KT 16/M02 A3025 RMK A01 T01551023  RH  029%=      5-min Rain = 0
KJU1 142140Z 17011KT 16/M02 A3025 RMK A01 T01551021  RH  030%=      5-min Rain = 0
KJU1 142141Z 17011KT 16/M02 A3025 RMK A01 T01561021  RH  030%=      5-min Rain = 0
KJU1 142142Z 16009KT 16/M02 A3025 RMK A01 T01561018  RH  030%=      5-min Rain = 0
KJU1 142143Z 16007KT 16/M02 A3025 RMK A01 T01551022  RH  030%=      5-min Rain = 0
KJU1 142144Z 18006KT 16/M02 A3024 RMK A01 T01551018  RH  031%=      5-min Rain = 0
KJU1 142145Z 17006KT 16/M02 A3024 RMK A01 T01551020  RH  030%=      5-min Rain = 0
KJU1 142146Z 16006KT 16/M02 A3024 RMK A01 T01561015  RH  031%=      5-min Rain = 0
KJU1 142147Z 17003KT 16/M02 A3024 RMK A01 T01581018  RH  030%=      5-min Rain = 0
KJU1 142148Z 14007KT 16/M01 A3024 RMK A01 T01601009  RH  031%=      5-min Rain = 0
KJU1 142149Z 14010KT 16/M01 A3024 RMK A01 T01621010  RH  031%=      5-min Rain = 0
KJU1 142150Z 12009KT 16/M02 A3025 RMK A01 T01581017  RH  030%=      5-min Rain = 0
KJU1 142151Z 13010KT 16/M02 A3025 RMK A01 T01551017  RH  031%=      5-min Rain = 0
KJU1 142152Z 15008KT 15/M02 A3025 RMK A01 T01541015  RH  031%=      5-min Rain = 0
KJU1 142153Z 17008KT 16/M01 A3025 RMK A01 T01551012  RH  032%=      5-min Rain = 0
KJU1 142154Z 18010KT 16/M02 A3025 RMK A01 T01561015  RH  031%=      5-min Rain = 0
KJU1 142155Z 18009KT 16/M02 A3025 RMK A01 T01551020  RH  030%=      5-min Rain = 0
KJU1 142156Z 19010KT 16/M02 A3025 RMK A01 T01551015  RH  031%=      5-min Rain = 0
KJU1 142157Z 19008KT 15/M02 A3025 RMK A01 T01541017  RH  031%=      5-min Rain = 0
KJU1 142158Z 17006KT 15/M01 A3025 RMK A01 T01541013  RH  032%=      5-min Rain = 0
KJU1 142159Z 14006KT 16/M01 A3025 RMK A01 T01561014  RH  031%=      5-min Rain = 0
KJU1 142200Z 12006KT 16/M01 A3025 RMK A01 T01561013  RH  031%=      5-min Rain = 0
KJU1 142201Z 13009KT 16/M01 A3025 RMK A01 T01561008  RH  033%=      5-min Rain = 0
KJU1 142202Z 16008G14KT 16/00 A3024 RMK A01 T015700-0  RH  034%=      5-min Rain = 0
KJU1 142203Z 16010KT 16/M01 A3024 RMK A01 T01591007  RH  032%=      5-min Rain = 0
KJU1 142204Z 16012KT 16/M01 A3024 RMK A01 T01571009  RH  032%=      5-min Rain = 0
KJU1 142205Z 15011KT 16/M01 A3024 RMK A01 T01561012  RH  032%=      5-min Rain = 0
KJU1 142206Z 15009KT 16/M01 A3024 RMK A01 T01561008  RH  032%=      5-min Rain = 0
KJU1 142207Z 16010KT 16/M01 A3024 RMK A01 T01561012  RH  032%=      5-min Rain = 0
KJU1 142208Z 16009KT 15/M01 A3024 RMK A01 T01541013  RH  032%=      5-min Rain = 0
KJU1 142209Z 14007KT 15/M01 A3024 RMK A01 T01541014  RH  032%=      5-min Rain = 0
KJU1 142210Z 15009KT 15/M01 A3024 RMK A01 T01541011  RH  032%=      5-min Rain = 0
KJU1 142211Z 18007KT 16/M01 A3024 RMK A01 T01551011  RH  032%=      5-min Rain = 0
KJU1 142212Z 16007KT 16/M01 A3024 RMK A01 T01551012  RH  032%=      5-min Rain = 0
KJU1 142213Z 17009KT 16/M01 A3024 RMK A01 T01551011  RH  032%=      5-min Rain = 0
KJU1 142214Z 17010KT 16/M01 A3024 RMK A01 T01551012  RH  032%=      5-min Rain = 0
KJU1 142215Z 14005G10KT 16/M01 A3024 RMK A01 T01551012  RH  032%=      5-min Rain = 0
KJU1 142216Z 13008KT 16/M01 A3024 RMK A01 T01551012  RH  032%=      5-min Rain = 0
KJU1 142217Z 13011KT 16/M01 A3024 RMK A01 T01571010  RH  032%=      5-min Rain = 0
KJU1 142218Z 13011KT 16/M01 A3024 RMK A01 T01571009  RH  032%=      5-min Rain = 0
KJU1 142219Z 13011KT 16/M01 A3024 RMK A01 T01571008  RH  033%=      5-min Rain = 0
KJU1 142220Z 14009KT 16/M00 A3024 RMK A01 T01571004  RH  033%=      5-min Rain = 0
KJU1 142221Z 14008KT 16/M01 A3024 RMK A01 T01581007  RH  032%=      5-min Rain = 0
KJU1 142222Z 14008KT 16/M01 A3024 RMK A01 T01571010  RH  032%=      5-min Rain = 0
KJU1 142223Z 13010KT 16/M01 A3024 RMK A01 T01571007  RH  033%=      5-min Rain = 0
KJU1 142224Z 13009KT 16/M01 A3024 RMK A01 T01561007  RH  033%=      5-min Rain = 0
KJU1 142225Z 11009KT 16/M00 A3024 RMK A01 T01561004  RH  034%=      5-min Rain = 0
KJU1 142226Z 11009KT 16/M00 A3024 RMK A01 T01561002  RH  034%=      5-min Rain = 0
KJU1 142227Z 12009KT 16/00 A3024 RMK A01 T01570000  RH  034%=      5-min Rain = 0
KJU1 142228Z 12009KT 16/M01 A3024 RMK A01 T01571005  RH  033%=      5-min Rain = 0
KJU1 142229Z 11010KT 16/M00 A3024 RMK A01 T01561004  RH  033%=      5-min Rain = 0
KJU1 142230Z 12008KT 16/M01 A3024 RMK A01 T01551005  RH  033%=      5-min Rain = 0
KJU1 142231Z 14007KT 16/M00 A3024 RMK A01 T01551004  RH  034%=      5-min Rain = 0
KJU1 142232Z 16006KT 16/M00 A3024 RMK A01 T01551004  RH  034%=      5-min Rain = 0
KJU1 142233Z 18008KT 16/M01 A3024 RMK A01 T01571005  RH  033%=      5-min Rain = 0
KJU1 142234Z 15007KT 16/M01 A3024 RMK A01 T01581008  RH  032%=      5-min Rain = 0
KJU1 142235Z 18005KT 16/M01 A3024 RMK A01 T01581007  RH  032%=      5-min Rain = 0
KJU1 142236Z 18009KT 16/M01 A3024 RMK A01 T01581009  RH  032%=      5-min Rain = 0
KJU1 142237Z 17006KT 16/M01 A3024 RMK A01 T01581008  RH  032%=      5-min Rain = 0
KJU1 142238Z 18008KT 16/M01 A3024 RMK A01 T01591007  RH  032%=      5-min Rain = 0
KJU1 142239Z 15006KT 16/M01 A3024 RMK A01 T01601005  RH  032%=      5-min Rain = 0
KJU1 142240Z 15005KT 16/M00 A3024 RMK A01 T01611003  RH  033%=      5-min Rain = 0
KJU1 142241Z 14008KT 16/M01 A3024 RMK A01 T01621006  RH  032%=      5-min Rain = 0
KJU1 142242Z 16010KT 16/M01 A3024 RMK A01 T01611008  RH  032%=      5-min Rain = 0
KJU1 142243Z 16008KT 16/M01 A3024 RMK A01 T01591008  RH  032%=      5-min Rain = 0
KJU1 142244Z 14008KT 16/M01 A3024 RMK A01 T01581005  RH  033%=      5-min Rain = 0
KJU1 142245Z 14006KT 16/M00 A3024 RMK A01 T01581002  RH  033%=      5-min Rain = 0
KJU1 142246Z 13007KT 16/M01 A3024 RMK A01 T01581007  RH  032%=      5-min Rain = 0
KJU1 142247Z 17006KT 16/M01 A3024 RMK A01 T01571006  RH  033%=      5-min Rain = 0
KJU1 142248Z 16006KT 16/M01 A3024 RMK A01 T01571005  RH  033%=      5-min Rain = 0
KJU1 142249Z 16007KT 16/M01 A3024 RMK A01 T01581005  RH  033%=      5-min Rain = 0
KJU1 142250Z 14008KT 16/M00 A3024 RMK A01 T01581004  RH  033%=      5-min Rain = 0
KJU1 142251Z 13011KT 16/M00 A3024 RMK A01 T01591004  RH  033%=      5-min Rain = 0
KJU1 142252Z 13012KT 16/M01 A3024 RMK A01 T01581007  RH  032%=      5-min Rain = 0
KJU1 142253Z 15011KT 16/M01 A3024 RMK A01 T01561006  RH  033%=      5-min Rain = 0
KJU1 142254Z 15009KT 16/M01 A3024 RMK A01 T01551008  RH  033%=      5-min Rain = 0
KJU1 142255Z 15007KT 16/M01 A3024 RMK A01 T01551007  RH  033%=      5-min Rain = 0
KJU1 142256Z 14008KT 16/M01 A3024 RMK A01 T01551006  RH  033%=      5-min Rain = 0
KJU1 142257Z 14008KT 16/M01 A3024 RMK A01 T01551008  RH  033%=      5-min Rain = 0
KJU1 142258Z 15007KT 16/M01 A3024 RMK A01 T01551009  RH  033%=      5-min Rain = 0
KJU1 142259Z 14008KT 16/M01 A3024 RMK A01 T01551008  RH  033%=      5-min Rain = 0
KJU1 142300Z 14010KT 16/M01 A3024 RMK A01 T01561006  RH  033%=      5-min Rain = 0
KJU1 142301Z 14010KT 16/M01 A3024 RMK A01 T01551008  RH  033%=      5-min Rain = 0
KJU1 142302Z 15006KT 15/M01 A3024 RMK A01 T01541006  RH  033%=      5-min Rain = 0
KJU1 142303Z 15007KT 16/00 A3024 RMK A01 T01550001  RH  035%=      5-min Rain = 0
KJU1 142304Z 18006KT 16/M00 A3024 RMK A01 T01561002  RH  034%=      5-min Rain = 0
KJU1 142305Z 17005KT 16/M01 A3024 RMK A01 T01561006  RH  033%=      5-min Rain = 0
KJU1 142306Z 17005KT 16/M01 A3024 RMK A01 T01561008  RH  033%=      5-min Rain = 0
KJU1 142307Z 16005KT 16/M01 A3024 RMK A01 T01551008  RH  033%=      5-min Rain = 0
KJU1 142308Z 14005KT 16/M00 A3024 RMK A01 T01561001  RH  034%=      5-min Rain = 0
KJU1 142309Z 15006KT 16/M00 A3023 RMK A01 T01561004  RH  033%=      5-min Rain = 0
KJU1 142310Z 14005KT 16/M00 A3023 RMK A01 T01551001  RH  034%=      5-min Rain = 0
KJU1 142311Z 12008KT 16/M00 A3023 RMK A01 T01551001  RH  034%=      5-min Rain = 0
KJU1 142312Z 14006KT 16/00 A3023 RMK A01 T01550000  RH  035%=      5-min Rain = 0
KJU1 142313Z 15008KT 16/00 A3023 RMK A01 T01550002  RH  035%=      5-min Rain = 0
KJU1 142314Z 16010KT 16/00 A3023 RMK A01 T015500-0  RH  035%=      5-min Rain = 0
KJU1 142315Z 15008KT 15/M00 A3023 RMK A01 T01541001  RH  035%=      5-min Rain = 0
KJU1 142316Z 15007KT 15/M00 A3023 RMK A01 T01541001  RH  035%=      5-min Rain = 0
KJU1 142317Z 16006KT 15/00 A3024 RMK A01 T01540004  RH  036%=      5-min Rain = 0
KJU1 142318Z 16008KT 15/00 A3024 RMK A01 T01540001  RH  035%=      5-min Rain = 0
KJU1 142319Z 14009KT 15/M00 A3024 RMK A01 T01541001  RH  035%=      5-min Rain = 0
KJU1 142320Z 15007KT 15/M00 A3023 RMK A01 T01531001  RH  035%=      5-min Rain = 0
KJU1 142321Z 15009KT 15/00 A3024 RMK A01 T01530002  RH  036%=      5-min Rain = 0
KJU1 142322Z 15009KT 15/00 A3024 RMK A01 T01530001  RH  035%=      5-min Rain = 0
KJU1 142323Z 15006KT 15/00 A3024 RMK A01 T01530002  RH  036%=      5-min Rain = 0
KJU1 142324Z 15008KT 15/00 A3024 RMK A01 T01520002  RH  036%=      5-min Rain = 0
KJU1 142325Z 15010KT 15/00 A3024 RMK A01 T01520000  RH  036%=      5-min Rain = 0
KJU1 142326Z 15009KT 15/00 A3024 RMK A01 T015100-0  RH  036%=      5-min Rain = 0
KJU1 142327Z 15010KT 15/M00 A3024 RMK A01 T01511001  RH  035%=      5-min Rain = 0
KJU1 142328Z 14008KT 15/M00 A3024 RMK A01 T01511001  RH  035%=      5-min Rain = 0
KJU1 142329Z 13011KT 15/00 A3024 RMK A01 T01500001  RH  036%=      5-min Rain = 0
KJU1 142330Z 13010KT 15/00 A3024 RMK A01 T01500000  RH  036%=      5-min Rain = 0
KJU1 142331Z 13008KT 15/00 A3024 RMK A01 T01490002  RH  037%=      5-min Rain = 0
KJU1 142332Z 13010KT 15/00 A3024 RMK A01 T01490002  RH  037%=      5-min Rain = 0
KJU1 142333Z 15008KT 15/00 A3024 RMK A01 T01490001  RH  036%=      5-min Rain = 0
KJU1 142334Z 15006KT 15/00 A3024 RMK A01 T01490002  RH  037%=      5-min Rain = 0
KJU1 142335Z 14008KT 15/00 A3024 RMK A01 T01490003  RH  037%=      5-min Rain = 0
KJU1 142336Z 15009KT 15/00 A3024 RMK A01 T01490003  RH  037%=      5-min Rain = 0
KJU1 142337Z 15009KT 15/00 A3024 RMK A01 T01490002  RH  037%=      5-min Rain = 0
KJU1 142338Z 14005KT 15/00 A3024 RMK A01 T01490002  RH  037%=      5-min Rain = 0
KJU1 142339Z 14006KT 15/01 A3024 RMK A01 T01490005  RH  037%=      5-min Rain = 0
KJU1 142340Z 13007KT 15/00 A3024 RMK A01 T01490004  RH  037%=      5-min Rain = 0
KJU1 142341Z 13008KT 15/00 A3024 RMK A01 T01490001  RH  036%=      5-min Rain = 0
KJU1 142342Z 13009KT 15/00 A3024 RMK A01 T01480002  RH  037%=      5-min Rain = 0
KJU1 142343Z 14009KT 15/00 A3024 RMK A01 T014700-0  RH  036%=      5-min Rain = 0
KJU1 142344Z 13009KT 15/00 A3024 RMK A01 T01470000  RH  037%=      5-min Rain = 0
KJU1 142345Z 13011KT 15/00 A3024 RMK A01 T01460001  RH  037%=      5-min Rain = 0
KJU1 142346Z 14010KT 15/M00 A3024 RMK A01 T01451002  RH  036%=      5-min Rain = 0
KJU1 142347Z 13009KT 15/M00 A3024 RMK A01 T01451002  RH  037%=      5-min Rain = 0
KJU1 142348Z 14011KT 15/M00 A3024 RMK A01 T01451004  RH  036%=      5-min Rain = 0
KJU1 142349Z 13009KT 14/M00 A3024 RMK A01 T01441004  RH  036%=      5-min Rain = 0
KJU1 142350Z 14009KT 14/M00 A3024 RMK A01 T01441004  RH  036%=      5-min Rain = 0
KJU1 142351Z 14008KT 14/M00 A3024 RMK A01 T01431004  RH  036%=      5-min Rain = 0
KJU1 142352Z 13008KT 14/M00 A3024 RMK A01 T01431003  RH  037%=      5-min Rain = 0
KJU1 142353Z 13009KT 14/M00 A3024 RMK A01 T01421002  RH  037%=      5-min Rain = 0
KJU1 142354Z 13009KT 14/M00 A3024 RMK A01 T01421003  RH  037%=      5-min Rain = 0
KJU1 142355Z 13009KT 14/M00 A3024 RMK A01 T01411004  RH  037%=      5-min Rain = 0
KJU1 142356Z 14007KT 14/M00 A3024 RMK A01 T01411002  RH  037%=      5-min Rain = 0
KJU1 142357Z 14007KT 14/M00 A3024 RMK A01 T01411002  RH  038%=      5-min Rain = 0
KJU1 142358Z 14007KT 14/M00 A3024 RMK A01 T01411001  RH  038%=      5-min Rain = 0
KJU1 142359Z 14006KT 14/M00 A3024 RMK A01 T01401004  RH  037%=      5-min Rain = 0
KJU1 150000Z 15007KT 14/M00 A3024 RMK A01 T01401003  RH  037%=      5-min Rain = 0
KJU1 150001Z 15008KT 14/M00 A3024 RMK A01 T01401004  RH  037%=      5-min Rain = 0
KJU1 150002Z 15007KT 14/M00 A3024 RMK A01 T01401004  RH  037%=      5-min Rain = 0
KJU1 150003Z 14005KT 14/00 A3024 RMK A01 T01400001  RH  039%=      5-min Rain = 0
KJU1 150004Z 13007KT 14/00 A3024 RMK A01 T013800-0  RH  039%=      5-min Rain = 0
KJU1 150005Z 14007KT 14/M00 A3024 RMK A01 T01381002  RH  038%=      5-min Rain = 0
KJU1 150006Z 13006KT 14/00 A3024 RMK A01 T01370001  RH  039%=      5-min Rain = 0
KJU1 150007Z 14008KT 14/M00 A3024 RMK A01 T01361002  RH  039%=      5-min Rain = 0
KJU1 150008Z 14007KT 14/M00 A3024 RMK A01 T01361002  RH  039%=      5-min Rain = 0
KJU1 150009Z 14009KT 14/M00 A3024 RMK A01 T01351004  RH  038%=      5-min Rain = 0
KJU1 150010Z 14009KT 14/M01 A3024 RMK A01 T01351007  RH  038%=      5-min Rain = 0
KJU1 150011Z 14009KT 14/M01 A3024 RMK A01 T01351008  RH  037%=      5-min Rain = 0
KJU1 150012Z 13009KT 13/M01 A3024 RMK A01 T01341009  RH  037%=      5-min Rain = 0
KJU1 150013Z 14009KT 13/M01 A3024 RMK A01 T01341012  RH  037%=      5-min Rain = 0
KJU1 150014Z 14007KT 13/M01 A3024 RMK A01 T01341010  RH  037%=      5-min Rain = 0
KJU1 150015Z 14007KT 13/M01 A3024 RMK A01 T01321008  RH  038%=      5-min Rain = 0
KJU1 150016Z 14007KT 13/M01 A3024 RMK A01 T01311009  RH  038%=      5-min Rain = 0
KJU1 150017Z 13009KT 13/M01 A3024 RMK A01 T01301011  RH  038%=      5-min Rain = 0
KJU1 150018Z 14008KT 13/M01 A3024 RMK A01 T01301011  RH  038%=      5-min Rain = 0
KJU1 150019Z 14008KT 13/M01 A3024 RMK A01 T01301012  RH  037%=      5-min Rain = 0
KJU1 150020Z 14008KT 13/M01 A3024 RMK A01 T01301011  RH  038%=      5-min Rain = 0
KJU1 150021Z 14009KT 13/M01 A3024 RMK A01 T01301013  RH  037%=      5-min Rain = 0
KJU1 150022Z 14008KT 13/M01 A3024 RMK A01 T01301014  RH  037%=      5-min Rain = 0
KJU1 150023Z 14007KT 13/M01 A3024 RMK A01 T01301013  RH  037%=      5-min Rain = 0
KJU1 150024Z 14007KT 13/M01 A3024 RMK A01 T01301012  RH  037%=      5-min Rain = 0
KJU1 150025Z 14006KT 13/M01 A3024 RMK A01 T01291011  RH  038%=      5-min Rain = 0
KJU1 150026Z 14006KT 13/M01 A3024 RMK A01 T01281013  RH  038%=      5-min Rain = 0
KJU1 150027Z 14006KT 13/M01 A3024 RMK A01 T01271011  RH  038%=      5-min Rain = 0
KJU1 150028Z 15006KT 13/M01 A3024 RMK A01 T01261012  RH  039%=      5-min Rain = 0
KJU1 150029Z 14005KT 13/M01 A3024 RMK A01 T01251012  RH  038%=      5-min Rain = 0
KJU1 150030Z 15007KT 13/M01 A3024 RMK A01 T01251013  RH  039%=      5-min Rain = 0
KJU1 150031Z 15007KT 13/M01 A3024 RMK A01 T01251012  RH  039%=      5-min Rain = 0
KJU1 150032Z 16005KT 12/M01 A3024 RMK A01 T01241012  RH  039%=      5-min Rain = 0
KJU1 150033Z 15006KT 12/M01 A3024 RMK A01 T01231010  RH  040%=      5-min Rain = 0
KJU1 150034Z 14005KT 12/M01 A3024 RMK A01 T01221011  RH  040%=      5-min Rain = 0
KJU1 150035Z 14006KT 12/M01 A3024 RMK A01 T01211011  RH  040%=      5-min Rain = 0
KJU1 150036Z 15008KT 12/M01 A3024 RMK A01 T01211013  RH  040%=      5-min Rain = 0
KJU1 150037Z 15005KT 12/M01 A3024 RMK A01 T01211014  RH  039%=      5-min Rain = 0
KJU1 150038Z 15006KT 12/M01 A3024 RMK A01 T01221013  RH  039%=      5-min Rain = 0
KJU1 150039Z 15006KT 12/M01 A3024 RMK A01 T01221011  RH  040%=      5-min Rain = 0
KJU1 150040Z 15006KT 12/M01 A3025 RMK A01 T01201011  RH  040%=      5-min Rain = 0
KJU1 150041Z 15006KT 12/M01 A3025 RMK A01 T01191012  RH  040%=      5-min Rain = 0
KJU1 150042Z 15006KT 12/M01 A3025 RMK A01 T01191012  RH  040%=      5-min Rain = 0
KJU1 150043Z 15007KT 12/M01 A3025 RMK A01 T01181013  RH  040%=      5-min Rain = 0
KJU1 150044Z 15006KT 12/M01 A3025 RMK A01 T01191013  RH  040%=      5-min Rain = 0
KJU1 150045Z 15007KT 12/M01 A3025 RMK A01 T01181012  RH  040%=      5-min Rain = 0
KJU1 150046Z 15008KT 12/M01 A3025 RMK A01 T01181013  RH  040%=      5-min Rain = 0
KJU1 150047Z 15006KT 12/M01 A3025 RMK A01 T01181014  RH  040%=      5-min Rain = 0
KJU1 150048Z 15006KT 12/M01 A3025 RMK A01 T01181013  RH  040%=      5-min Rain = 0
KJU1 150049Z 15006KT 12/M02 A3025 RMK A01 T01171015  RH  040%=      5-min Rain = 0
KJU1 150050Z 15007KT 12/M01 A3025 RMK A01 T01171013  RH  040%=      5-min Rain = 0
KJU1 150051Z 15006KT 12/M01 A3024 RMK A01 T01171014  RH  040%=      5-min Rain = 0
KJU1 150052Z 14007KT 12/M01 A3025 RMK A01 T01161013  RH  041%=      5-min Rain = 0
KJU1 150053Z 15008KT 12/M01 A3025 RMK A01 T01151014  RH  041%=      5-min Rain = 0
KJU1 150054Z 15007KT 12/M02 A3025 RMK A01 T01151016  RH  040%=      5-min Rain = 0
KJU1 150055Z 15007KT 12/M02 A3025 RMK A01 T01151015  RH  040%=      5-min Rain = 0
KJU1 150056Z 15007KT 12/M01 A3025 RMK A01 T01151014  RH  041%=      5-min Rain = 0
KJU1 150057Z 15007KT 11/M02 A3025 RMK A01 T01141015  RH  041%=      5-min Rain = 0
KJU1 150058Z 15006KT 11/M01 A3025 RMK A01 T01141014  RH  041%=      5-min Rain = 0
KJU1 150059Z 15007KT 11/M02 A3025 RMK A01 T01131016  RH  041%=      5-min Rain = 0
KJU1 150100Z 15007KT 11/M01 A3025 RMK A01 T01131014  RH  041%=      5-min Rain = 0
KJU1 150101Z 15007KT 11/M02 A3025 RMK A01 T01131015  RH  041%=      5-min Rain = 0
KJU1 150102Z 15006KT 11/M02 A3025 RMK A01 T01131015  RH  041%=      5-min Rain = 0
KJU1 150103Z 15007KT 11/M01 A3025 RMK A01 T01121014  RH  041%=      5-min Rain = 0
KJU1 150104Z 15006KT 11/M02 A3025 RMK A01 T01111016  RH  041%=      5-min Rain = 0
KJU1 150105Z 15006KT 11/M02 A3025 RMK A01 T01121016  RH  041%=      5-min Rain = 0
KJU1 150106Z 15006KT 11/M02 A3025 RMK A01 T01111017  RH  041%=      5-min Rain = 0
KJU1 150107Z 15006KT 11/M02 A3025 RMK A01 T01121017  RH  041%=      5-min Rain = 0
KJU1 150108Z 15005KT 11/M02 A3025 RMK A01 T01111015  RH  041%=      5-min Rain = 0
KJU1 150109Z 15005KT 11/M02 A3025 RMK A01 T01101015  RH  042%=      5-min Rain = 0
KJU1 150110Z 15006KT 11/M02 A3025 RMK A01 T01081015  RH  042%=      5-min Rain = 0
KJU1 150111Z 15006KT 11/M02 A3025 RMK A01 T01081015  RH  042%=      5-min Rain = 0
KJU1 150112Z 15006KT 11/M02 A3025 RMK A01 T01081015  RH  042%=      5-min Rain = 0
KJU1 150113Z 15007KT 11/M02 A3025 RMK A01 T01081015  RH  042%=      5-min Rain = 0
KJU1 150114Z 15006KT 11/M02 A3025 RMK A01 T01081016  RH  042%=      5-min Rain = 0
KJU1 150115Z 16006KT 11/M02 A3025 RMK A01 T01081015  RH  042%=      5-min Rain = 0
KJU1 150116Z 15005KT 11/M02 A3025 RMK A01 T01071015  RH  043%=      5-min Rain = 0
KJU1 150117Z 15006KT 11/M01 A3025 RMK A01 T01061014  RH  043%=      5-min Rain = 0
KJU1 150118Z 15006KT 11/M02 A3025 RMK A01 T01061015  RH  043%=      5-min Rain = 0
KJU1 150119Z 15006KT 11/M02 A3026 RMK A01 T01051015  RH  043%=      5-min Rain = 0
KJU1 150120Z 15006KT 11/M02 A3026 RMK A01 T01051015  RH  043%=      5-min Rain = 0
KJU1 150121Z 15006KT 11/M02 A3026 RMK A01 T01051015  RH  043%=      5-min Rain = 0
KJU1 150122Z 15006KT 11/M02 A3026 RMK A01 T01051016  RH  043%=      5-min Rain = 0
KJU1 150123Z 15006KT 10/M01 A3026 RMK A01 T01041014  RH  044%=      5-min Rain = 0
KJU1 150124Z 15006KT 10/M02 A3026 RMK A01 T01031015  RH  044%=      5-min Rain = 0
KJU1 150125Z 15005KT 10/M02 A3026 RMK A01 T01021015  RH  044%=      5-min Rain = 0
KJU1 150126Z 15006KT 10/M02 A3026 RMK A01 T01021015  RH  044%=      5-min Rain = 0
KJU1 150127Z 15006KT 10/M01 A3026 RMK A01 T01021014  RH  044%=      5-min Rain = 0
KJU1 150128Z 15006KT 10/M02 A3026 RMK A01 T01021015  RH  044%=      5-min Rain = 0
KJU1 150129Z 15006KT 10/M02 A3026 RMK A01 T01021015  RH  044%=      5-min Rain = 0
KJU1 150130Z 15006KT 10/M01 A3026 RMK A01 T01011014  RH  045%=      5-min Rain = 0
KJU1 150131Z 15006KT 10/M02 A3026 RMK A01 T01001015  RH  045%=      5-min Rain = 0
KJU1 150132Z 16006KT 10/M02 A3026 RMK A01 T01001015  RH  045%=      5-min Rain = 0
KJU1 150133Z 16005KT 10/M02 A3026 RMK A01 T01001015  RH  045%=      5-min Rain = 0
KJU1 150134Z 16005KT 10/M01 A3026 RMK A01 T01001014  RH  045%=      5-min Rain = 0
KJU1 150135Z 16005KT 10/M01 A3026 RMK A01 T00991014  RH  045%=      5-min Rain = 0
KJU1 150136Z 16004KT 10/M01 A3026 RMK A01 T00981014  RH  046%=      5-min Rain = 0
KJU1 150137Z 16005KT 10/M01 A3026 RMK A01 T00971014  RH  046%=      5-min Rain = 0
KJU1 150138Z 16004KT 10/M01 A3026 RMK A01 T00971014  RH  046%=      5-min Rain = 0
KJU1 150139Z 16004KT 10/M02 A3027 RMK A01 T00971015  RH  046%=      5-min Rain = 0
KJU1 150140Z 16005KT 10/M02 A3027 RMK A01 T00971015  RH  046%=      5-min Rain = 0
KJU1 150141Z 16005KT 10/M02 A3027 RMK A01 T00961015  RH  046%=      5-min Rain = 0
KJU1 150142Z 15005KT 10/M02 A3027 RMK A01 T00961016  RH  046%=      5-min Rain = 0
KJU1 150143Z 15005KT 10/M02 A3027 RMK A01 T00961015  RH  046%=      5-min Rain = 0
KJU1 150144Z 16005KT 10/M01 A3027 RMK A01 T00961014  RH  046%=      5-min Rain = 0
KJU1 150145Z 15004KT 10/M02 A3027 RMK A01 T00951015  RH  046%=      5-min Rain = 0
KJU1 150146Z 15005KT 10/M01 A3027 RMK A01 T00951014  RH  046%=      5-min Rain = 0
KJU1 150147Z 15005KT 09/M02 A3027 RMK A01 T00941015  RH  047%=      5-min Rain = 0
KJU1 150148Z 16005KT 09/M01 A3027 RMK A01 T00941014  RH  047%=      5-min Rain = 0
KJU1 150149Z 16006KT 09/M01 A3027 RMK A01 T00941014  RH  047%=      5-min Rain = 0
KJU1 150150Z 16005KT 09/M01 A3027 RMK A01 T00931013  RH  048%=      5-min Rain = 0
KJU1 150151Z 16005KT 09/M01 A3027 RMK A01 T00931012  RH  048%=      5-min Rain = 0
KJU1 150152Z 16005KT 09/M01 A3027 RMK A01 T00921013  RH  048%=      5-min Rain = 0
KJU1 150153Z 15004KT 09/M01 A3027 RMK A01 T00921013  RH  048%=      5-min Rain = 0
KJU1 150154Z 16005KT 09/M01 A3027 RMK A01 T00921013  RH  048%=      5-min Rain = 0
KJU1 150155Z 16005KT 09/M01 A3027 RMK A01 T00921013  RH  048%=      5-min Rain = 0
KJU1 150156Z 16005KT 09/M01 A3027 RMK A01 T00921012  RH  048%=      5-min Rain = 0
KJU1 150157Z 16005KT 09/M01 A3027 RMK A01 T00911013  RH  048%=      5-min Rain = 0
KJU1 150158Z 16005KT 09/M01 A3027 RMK A01 T00901013  RH  049%=      5-min Rain = 0
KJU1 150159Z 15005KT 09/M01 A3027 RMK A01 T00891013  RH  049%=      5-min Rain = 0
KJU1 150200Z 15005KT 09/M01 A3027 RMK A01 T00891012  RH  049%=      5-min Rain = 0
KJU1 150201Z 15005KT 09/M01 A3027 RMK A01 T00891012  RH  049%=      5-min Rain = 0
KJU1 150202Z 15005KT 09/M01 A3027 RMK A01 T00881012  RH  049%=      5-min Rain = 0
KJU1 150203Z 15005KT 09/M01 A3027 RMK A01 T00891013  RH  049%=      5-min Rain = 0
KJU1 150204Z 15005KT 09/M01 A3027 RMK A01 T00891013  RH  049%=      5-min Rain = 0
KJU1 150205Z 15005KT 09/M01 A3027 RMK A01 T00891012  RH  049%=      5-min Rain = 0
KJU1 150206Z 16004KT 09/M01 A3027 RMK A01 T00891012  RH  049%=      5-min Rain = 0
KJU1 150207Z 15005KT 09/M01 A3028 RMK A01 T00901012  RH  049%=      5-min Rain = 0
KJU1 150208Z 16005KT 09/M01 A3028 RMK A01 T00891012  RH  049%=      5-min Rain = 0
KJU1 150209Z 16005KT 09/M01 A3028 RMK A01 T00891011  RH  049%=      5-min Rain = 0
KJU1 150210Z 16005KT 09/M01 A3028 RMK A01 T00881011  RH  050%=      5-min Rain = 0
KJU1 150211Z 16005KT 09/M01 A3028 RMK A01 T00871010  RH  050%=      5-min Rain = 0
KJU1 150212Z 16005KT 09/M01 A3028 RMK A01 T00871011  RH  050%=      5-min Rain = 0
KJU1 150213Z 16006KT 09/M01 A3028 RMK A01 T00861011  RH  050%=      5-min Rain = 0
KJU1 150214Z 16005KT 09/M01 A3028 RMK A01 T00861011  RH  050%=      5-min Rain = 0
KJU1 150215Z 16005KT 09/M01 A3028 RMK A01 T00861011  RH  051%=      5-min Rain = 0
KJU1 150216Z 16005KT 09/M01 A3028 RMK A01 T00861010  RH  051%=      5-min Rain = 0
KJU1 150217Z 16006KT 09/M01 A3028 RMK A01 T00851010  RH  051%=      5-min Rain = 0
KJU1 150218Z 16006KT 09/M01 A3028 RMK A01 T00851010  RH  051%=      5-min Rain = 0
KJU1 150219Z 16005KT 08/M01 A3028 RMK A01 T00841010  RH  051%=      5-min Rain = 0
KJU1 150220Z 16006KT 08/M01 A3028 RMK A01 T00841010  RH  052%=      5-min Rain = 0
KJU1 150221Z 16006KT 08/M01 A3028 RMK A01 T00841009  RH  052%=      5-min Rain = 0
KJU1 150222Z 16005KT 08/M01 A3028 RMK A01 T00841009  RH  052%=      5-min Rain = 0
KJU1 150223Z 16005KT 08/M01 A3028 RMK A01 T00841009  RH  052%=      5-min Rain = 0
KJU1 150224Z 16005KT 08/M01 A3028 RMK A01 T00831009  RH  052%=      5-min Rain = 0
KJU1 150225Z 16005KT 08/M01 A3028 RMK A01 T00831009  RH  052%=      5-min Rain = 0
KJU1 150226Z 16005KT 08/M01 A3028 RMK A01 T00821009  RH  053%=      5-min Rain = 0
KJU1 150227Z 15005KT 08/M01 A3028 RMK A01 T00811008  RH  053%=      5-min Rain = 0
KJU1 150228Z 16005KT 08/M01 A3028 RMK A01 T00811008  RH  054%=      5-min Rain = 0
KJU1 150229Z 16005KT 08/M01 A3028 RMK A01 T00801008  RH  054%=      5-min Rain = 0
KJU1 150230Z 16004KT 08/M01 A3028 RMK A01 T00801008  RH  054%=      5-min Rain = 0
KJU1 150231Z 16005KT 08/M01 A3028 RMK A01 T00801008  RH  054%=      5-min Rain = 0
KJU1 150232Z 16004KT 08/M01 A3028 RMK A01 T00801008  RH  054%=      5-min Rain = 0
KJU1 150233Z 16004KT 08/M01 A3028 RMK A01 T00801008  RH  054%=      5-min Rain = 0
KJU1 150234Z 17004KT 08/M01 A3029 RMK A01 T00801008  RH  054%=      5-min Rain = 0
KJU1 150235Z 17004KT 08/M01 A3029 RMK A01 T00801007  RH  054%=      5-min Rain = 0
KJU1 150236Z 17003KT 08/M01 A3029 RMK A01 T00791007  RH  054%=      5-min Rain = 0
KJU1 150237Z 16003KT 08/M01 A3029 RMK A01 T00791008  RH  054%=      5-min Rain = 0
KJU1 150238Z 16004KT 08/M01 A3029 RMK A01 T00791008  RH  054%=      5-min Rain = 0
KJU1 150239Z 16004KT 08/M01 A3029 RMK A01 T00791009  RH  054%=      5-min Rain = 0
KJU1 150240Z 16004KT 08/M01 A3029 RMK A01 T00791009  RH  054%=      5-min Rain = 0
KJU1 150241Z 16003KT 08/M01 A3029 RMK A01 T00791009  RH  054%=      5-min Rain = 0
KJU1 150242Z 16003KT 08/M01 A3029 RMK A01 T00791009  RH  054%=      5-min Rain = 0
KJU1 150243Z 16003KT 08/M01 A3029 RMK A01 T00781010  RH  054%=      5-min Rain = 0
KJU1 150244Z 16003KT 08/M01 A3029 RMK A01 T00781010  RH  054%=      5-min Rain = 0
KJU1 150245Z 17003KT 08/M01 A3029 RMK A01 T00771010  RH  054%=      5-min Rain = 0
KJU1 150246Z 16003KT 08/M01 A3029 RMK A01 T00761010  RH  055%=      5-min Rain = 0
KJU1 150247Z 17003KT 08/M01 A3029 RMK A01 T00751010  RH  055%=      5-min Rain = 0
KJU1 150248Z 17004KT 07/M01 A3029 RMK A01 T00741010  RH  055%=      5-min Rain = 0
KJU1 150249Z 17003KT 07/M01 A303 RMK A01 T00741010  RH  055%=      5-min Rain = 0
KJU1 150250Z 17003KT 07/M01 A303 RMK A01 T00741009  RH  056%=      5-min Rain = 0
KJU1 150251Z 17003KT 07/M01 A303 RMK A01 T00731010  RH  056%=      5-min Rain = 0
KJU1 150252Z 17004KT 07/M01 A303 RMK A01 T00731009  RH  056%=      5-min Rain = 0
KJU1 150253Z 17004KT 07/M01 A303 RMK A01 T00721010  RH  056%=      5-min Rain = 0
KJU1 150254Z 17004KT 07/M01 A303 RMK A01 T00721010  RH  056%=      5-min Rain = 0
KJU1 150255Z 17003KT 07/M01 A303 RMK A01 T00711010  RH  057%=      5-min Rain = 0
KJU1 150256Z 17004KT 07/M01 A303 RMK A01 T00701010  RH  057%=      5-min Rain = 0
KJU1 150257Z 16004KT 07/M01 A303 RMK A01 T00701009  RH  057%=      5-min Rain = 0
KJU1 150258Z 16003KT 07/M01 A303 RMK A01 T00691009  RH  058%=      5-min Rain = 0
KJU1 150259Z 17003KT 07/M01 A303 RMK A01 T00681009  RH  058%=      5-min Rain = 0
KJU1 150300Z 17003KT 07/M01 A303 RMK A01 T00681009  RH  058%=      5-min Rain = 0
KJU1 150301Z 16003KT 07/M01 A303 RMK A01 T00681008  RH  058%=      5-min Rain = 0
KJU1 150302Z 16003KT 07/M01 A303 RMK A01 T00671009  RH  058%=      5-min Rain = 0
KJU1 150303Z 16003KT 07/M01 A303 RMK A01 T00671008  RH  059%=      5-min Rain = 0
KJU1 150304Z 16003KT 07/M01 A303 RMK A01 T00661009  RH  059%=      5-min Rain = 0
KJU1 150305Z 16003KT 07/M01 A303 RMK A01 T00661009  RH  059%=      5-min Rain = 0
KJU1 150306Z 16003KT 07/M01 A303 RMK A01 T00651010  RH  059%=      5-min Rain = 0
KJU1 150307Z 16003KT 07/M01 A303 RMK A01 T00651009  RH  059%=      5-min Rain = 0
KJU1 150308Z 15003KT 07/M01 A303 RMK A01 T00651009  RH  059%=      5-min Rain = 0
KJU1 150309Z 16003KT 06/M01 A303 RMK A01 T00641009  RH  059%=      5-min Rain = 0
KJU1 150310Z 15003KT 06/M01 A303 RMK A01 T00641009  RH  060%=      5-min Rain = 0
KJU1 150311Z 15003KT 06/M01 A303 RMK A01 T00631009  RH  060%=      5-min Rain = 0
KJU1 150312Z 15003KT 06/M01 A303 RMK A01 T00621010  RH  060%=      5-min Rain = 0
KJU1 150313Z 16003KT 06/M01 A303 RMK A01 T00621009  RH  061%=      5-min Rain = 0
KJU1 150314Z 16003KT 06/M01 A303 RMK A01 T00621008  RH  061%=      5-min Rain = 0
KJU1 150315Z 16004KT 06/M01 A303 RMK A01 T00621009  RH  061%=      5-min Rain = 0
KJU1 150316Z 16003KT 06/M01 A303 RMK A01 T00621009  RH  060%=      5-min Rain = 0
KJU1 150317Z 16003KT 06/M01 A303 RMK A01 T00631009  RH  060%=      5-min Rain = 0
KJU1 150318Z 17003KT 06/M01 A303 RMK A01 T00631009  RH  060%=      5-min Rain = 0
KJU1 150319Z 16003KT 06/M01 A303 RMK A01 T00631009  RH  060%=      5-min Rain = 0
KJU1 150320Z 17003KT 06/M01 A303 RMK A01 T00621009  RH  060%=      5-min Rain = 0
KJU1 150321Z 18003KT 06/M01 A3031 RMK A01 T00601010  RH  061%=      5-min Rain = 0
KJU1 150322Z 18002KT 06/M01 A3031 RMK A01 T00601010  RH  061%=      5-min Rain = 0
KJU1 150323Z 17003KT 06/M01 A3031 RMK A01 T00591010  RH  061%=      5-min Rain = 0
KJU1 150324Z 18003KT 06/M01 A3031 RMK A01 T00601010  RH  061%=      5-min Rain = 0
KJU1 150325Z 18003KT 06/M01 A3031 RMK A01 T00591010  RH  061%=      5-min Rain = 0
KJU1 150326Z 19003KT 06/M01 A3031 RMK A01 T00581009  RH  062%=      5-min Rain = 0
KJU1 150327Z 19003KT 06/M01 A3031 RMK A01 T00581009  RH  062%=      5-min Rain = 0
KJU1 150328Z 18003KT 06/M01 A3031 RMK A01 T00571009  RH  063%=      5-min Rain = 0
KJU1 150329Z 18004KT 06/M01 A3031 RMK A01 T00571008  RH  063%=      5-min Rain = 0
KJU1 150330Z 18004KT 06/M01 A3031 RMK A01 T00581007  RH  063%=      5-min Rain = 0
KJU1 150331Z 18003KT 06/M01 A3031 RMK A01 T00581008  RH  063%=      5-min Rain = 0
KJU1 150332Z 17003KT 06/M01 A3031 RMK A01 T00561009  RH  063%=      5-min Rain = 0
KJU1 150333Z 18003KT 06/M01 A3031 RMK A01 T00551009  RH  064%=      5-min Rain = 0
KJU1 150334Z 18003KT 05/M01 A3031 RMK A01 T00541009  RH  064%=      5-min Rain = 0
KJU1 150335Z 18003KT 05/M01 A3031 RMK A01 T00541009  RH  064%=      5-min Rain = 0
KJU1 150336Z 18003KT 05/M01 A3031 RMK A01 T00531008  RH  065%=      5-min Rain = 0
KJU1 150337Z 19003KT 05/M01 A3031 RMK A01 T00521008  RH  065%=      5-min Rain = 0
KJU1 150338Z 19003KT 05/M01 A3031 RMK A01 T00521008  RH  065%=      5-min Rain = 0
KJU1 150339Z 19003KT 05/M01 A3031 RMK A01 T00521007  RH  066%=      5-min Rain = 0
KJU1 150340Z 19003KT 05/M01 A3031 RMK A01 T00511008  RH  066%=      5-min Rain = 0
KJU1 150341Z 19003KT 05/M01 A3031 RMK A01 T00501008  RH  066%=      5-min Rain = 0
KJU1 150342Z 19003KT 05/M01 A3031 RMK A01 T00491009  RH  066%=      5-min Rain = 0
KJU1 150343Z 19003KT 05/M01 A3031 RMK A01 T00461011  RH  067%=      5-min Rain = 0
KJU1 150344Z 18003KT 04/M01 A3031 RMK A01 T00441010  RH  068%=      5-min Rain = 0
KJU1 150345Z 18003KT 05/M01 A3031 RMK A01 T00451008  RH  068%=      5-min Rain = 0
KJU1 150346Z 18003KT 04/M01 A3031 RMK A01 T00441009  RH  069%=      5-min Rain = 0
KJU1 150347Z 19003KT 04/M01 A3031 RMK A01 T00441007  RH  069%=      5-min Rain = 0
KJU1 150348Z 19003KT 05/M01 A3031 RMK A01 T00461006  RH  069%=      5-min Rain = 0
KJU1 150349Z 19003KT 05/M01 A3031 RMK A01 T00481005  RH  068%=      5-min Rain = 0
KJU1 150350Z 19002KT 05/M01 A3031 RMK A01 T00501006  RH  067%=      5-min Rain = 0
KJU1 150351Z 19002KT 05/M01 A3031 RMK A01 T00491007  RH  067%=      5-min Rain = 0
KJU1 150352Z 18002KT 05/M01 A3031 RMK A01 T00471009  RH  067%=      5-min Rain = 0
KJU1 150353Z 17001KT 04/M01 A3031 RMK A01 T00441012  RH  067%=      5-min Rain = 0
KJU1 150354Z 16002KT 04/M01 A3031 RMK A01 T00421011  RH  069%=      5-min Rain = 0
KJU1 150355Z 16002KT 04/M01 A3031 RMK A01 T00431008  RH  070%=      5-min Rain = 0
KJU1 150356Z 16002KT 04/M01 A3031 RMK A01 T00431008  RH  069%=      5-min Rain = 0
KJU1 150357Z 15002KT 04/M01 A303 RMK A01 T00401010  RH  070%=      5-min Rain = 0
KJU1 150358Z 14002KT 04/M01 A303 RMK A01 T00401007  RH  071%=      5-min Rain = 0
KJU1 150359Z 14002KT 04/M01 A303 RMK A01 T00411007  RH  071%=      5-min Rain = 0
KJU1 150400Z 14002KT 04/M01 A303 RMK A01 T00401008  RH  071%=      5-min Rain = 0
KJU1 150401Z 14003KT 04/M01 A303 RMK A01 T00371009  RH  072%=      5-min Rain = 0
KJU1 150402Z 15004KT 04/M01 A303 RMK A01 T00351009  RH  073%=      5-min Rain = 0
KJU1 150403Z 15003KT 03/M01 A303 RMK A01 T00341009  RH  073%=      5-min Rain = 0
KJU1 150404Z 15003KT 03/M01 A303 RMK A01 T00331009  RH  074%=      5-min Rain = 0
KJU1 150405Z 15003KT 03/M01 A303 RMK A01 T00311010  RH  075%=      5-min Rain = 0
KJU1 150406Z 15003KT 03/M01 A303 RMK A01 T00311008  RH  075%=      5-min Rain = 0
KJU1 150407Z 15004KT 03/M01 A303 RMK A01 T00321007  RH  076%=      5-min Rain = 0
KJU1 150408Z 15003KT 03/M01 A303 RMK A01 T00341006  RH  075%=      5-min Rain = 0
KJU1 150409Z 15004KT 04/M01 A303 RMK A01 T00351005  RH  075%=      5-min Rain = 0
KJU1 150410Z 14004KT 04/M01 A303 RMK A01 T00351006  RH  075%=      5-min Rain = 0
KJU1 150411Z 15004KT 04/M01 A303 RMK A01 T00351005  RH  075%=      5-min Rain = 0
KJU1 150412Z 16004KT 04/M00 A303 RMK A01 T00361004  RH  075%=      5-min Rain = 0
KJU1 150413Z 15004KT 04/M00 A303 RMK A01 T00371004  RH  075%=      5-min Rain = 0
KJU1 150414Z 16003KT 04/M01 A3029 RMK A01 T00371006  RH  074%=      5-min Rain = 0
KJU1 150415Z 16003KT 04/M01 A3029 RMK A01 T00381005  RH  074%=      5-min Rain = 0
KJU1 150416Z 15003KT 04/M01 A3029 RMK A01 T00381005  RH  073%=      5-min Rain = 0
KJU1 150417Z 16003KT 04/M01 A3029 RMK A01 T00381005  RH  073%=      5-min Rain = 0
KJU1 150418Z 16003KT 04/M01 A3029 RMK A01 T00381006  RH  073%=      5-min Rain = 0
KJU1 150419Z 15003KT 04/M01 A3029 RMK A01 T00381007  RH  072%=      5-min Rain = 0
KJU1 150420Z 15002KT 04/M01 A3028 RMK A01 T00371007  RH  073%=      5-min Rain = 0
KJU1 150421Z 14003KT 04/M01 A3028 RMK A01 T00371007  RH  073%=      5-min Rain = 0
KJU1 150422Z 14004KT 04/M01 A3028 RMK A01 T00371005  RH  074%=      5-min Rain = 0
KJU1 150423Z 14003KT 04/M01 A3028 RMK A01 T00371005  RH  074%=      5-min Rain = 0
KJU1 150424Z 14003KT 04/M01 A3028 RMK A01 T00371005  RH  074%=      5-min Rain = 0
KJU1 150425Z 16002KT 04/M01 A3028 RMK A01 T00371006  RH  074%=      5-min Rain = 0
KJU1 150426Z 17002KT 04/M01 A3028 RMK A01 T00371005  RH  074%=      5-min Rain = 0
KJU1 150427Z 19001KT 04/M01 A3029 RMK A01 T00371005  RH  074%=      5-min Rain = 0
KJU1 150428Z 21001KT 04/M00 A3029 RMK A01 T00361003  RH  075%=      5-min Rain = 0
KJU1 150429Z 26001KT 04/M00 A3029 RMK A01 T00361001  RH  077%=      5-min Rain = 0
KJU1 150430Z 26001KT 04/00 A3029 RMK A01 T00350002  RH  079%=      5-min Rain = 0
KJU1 150431Z 26001KT 04/00 A3029 RMK A01 T00350003  RH  080%=      5-min Rain = 0
KJU1 150432Z 25001KT 04/00 A3029 RMK A01 T00350004  RH  080%=      5-min Rain = 0
KJU1 150433Z 25000KT 03/00 A3028 RMK A01 T00340004  RH  081%=      5-min Rain = 0
KJU1 150434Z 27001KT 03/00 A3028 RMK A01 T00330003  RH  081%=      5-min Rain = 0
KJU1 150435Z 27001KT 03/00 A3028 RMK A01 T00330003  RH  081%=      5-min Rain = 0
KJU1 150436Z 26000KT 03/00 A3028 RMK A01 T00320003  RH  081%=      5-min Rain = 0
KJU1 150437Z 00000KT 03/00 A3028 RMK A01 T00320003  RH  081%=      5-min Rain = 0
KJU1 150438Z 00000KT 03/00 A3028 RMK A01 T00310002  RH  081%=      5-min Rain = 0
KJU1 150439Z 00000KT 03/00 A3028 RMK A01 T00300001  RH  081%=      5-min Rain = 0
KJU1 150440Z 28000KT 03/00 A3028 RMK A01 T00300001  RH  081%=      5-min Rain = 0
KJU1 150441Z 28000KT 03/00 A3028 RMK A01 T002900-0  RH  081%=      5-min Rain = 0
KJU1 150442Z 31001KT 03/M00 A3028 RMK A01 T00281001  RH  081%=      5-min Rain = 0
KJU1 150443Z 31001KT 03/M00 A3028 RMK A01 T00271001  RH  082%=      5-min Rain = 0
KJU1 150444Z 31001KT 03/00 A3028 RMK A01 T00270000  RH  082%=      5-min Rain = 0
KJU1 150445Z 31001KT 03/00 A3028 RMK A01 T00280001  RH  083%=      5-min Rain = 0
KJU1 150446Z 30001KT 03/00 A3028 RMK A01 T00280002  RH  083%=      5-min Rain = 0
KJU1 150447Z 28001KT 03/00 A3028 RMK A01 T00280002  RH  083%=      5-min Rain = 0
KJU1 150448Z 27001KT 03/00 A3028 RMK A01 T00280002  RH  083%=      5-min Rain = 0
KJU1 150449Z 27001KT 03/00 A3028 RMK A01 T00280002  RH  083%=      5-min Rain = 0
KJU1 150450Z 27001KT 03/M00 A3028 RMK A01 T00271001  RH  082%=      5-min Rain = 0
KJU1 150451Z 26001KT 03/M00 A3028 RMK A01 T00251003  RH  082%=      5-min Rain = 0
KJU1 150452Z 27001KT 02/M00 A3028 RMK A01 T00241004  RH  082%=      5-min Rain = 0
KJU1 150453Z 26001KT 02/M00 A3028 RMK A01 T00231003  RH  083%=      5-min Rain = 0
KJU1 150454Z 26002KT 02/M00 A3028 RMK A01 T00241001  RH  083%=      5-min Rain = 0
KJU1 150455Z 26002KT 03/00 A3028 RMK A01 T002500-0  RH  084%=      5-min Rain = 0
KJU1 150456Z 25002KT 03/00 A3028 RMK A01 T00250000  RH  084%=      5-min Rain = 0
KJU1 150457Z 25002KT 03/00 A3028 RMK A01 T002500-0  RH  084%=      5-min Rain = 0
KJU1 150458Z 25001KT 03/00 A3028 RMK A01 T002500-0  RH  084%=      5-min Rain = 0
KJU1 150459Z 24001KT 02/M00 A3028 RMK A01 T00241001  RH  083%=      5-min Rain = 0
KJU1 150500Z 25001KT 02/M00 A3028 RMK A01 T00241002  RH  083%=      5-min Rain = 0
KJU1 150501Z 25000KT 02/M00 A3028 RMK A01 T00231002  RH  084%=      5-min Rain = 0
KJU1 150502Z 25000KT 02/00 A3028 RMK A01 T002300-0  RH  084%=      5-min Rain = 0
KJU1 150503Z 03000KT 02/00 A3028 RMK A01 T00240000  RH  084%=      5-min Rain = 0
KJU1 150504Z 04000KT 02/00 A3028 RMK A01 T00240001  RH  085%=      5-min Rain = 0
KJU1 150505Z 26000KT 03/00 A3028 RMK A01 T00260003  RH  085%=      5-min Rain = 0
KJU1 150506Z 00000KT 03/00 A3028 RMK A01 T00260004  RH  085%=      5-min Rain = 0
KJU1 150507Z 00000KT 03/00 A3028 RMK A01 T00260003  RH  085%=      5-min Rain = 0
KJU1 150508Z 00000KT 03/00 A3028 RMK A01 T00250002  RH  085%=      5-min Rain = 0
KJU1 150509Z 25000KT 02/00 A3028 RMK A01 T00240001  RH  085%=      5-min Rain = 0
KJU1 150510Z 25000KT 02/00 A3028 RMK A01 T00240001  RH  085%=      5-min Rain = 0
KJU1 150511Z 00000KT 02/00 A3028 RMK A01 T00240001  RH  085%=      5-min Rain = 0
KJU1 150512Z 23000KT 02/00 A3028 RMK A01 T00240000  RH  084%=      5-min Rain = 0
KJU1 150513Z 16000KT 02/M00 A3028 RMK A01 T00231002  RH  084%=      5-min Rain = 0
KJU1 150514Z 22001KT 02/M00 A3028 RMK A01 T00221003  RH  084%=      5-min Rain = 0
KJU1 150515Z 22002KT 02/M00 A3028 RMK A01 T00221002  RH  084%=      5-min Rain = 0
KJU1 150516Z 22002KT 02/M00 A3028 RMK A01 T00231003  RH  083%=      5-min Rain = 0
KJU1 150517Z 22001KT 02/M00 A3028 RMK A01 T00211004  RH  083%=      5-min Rain = 0
KJU1 150518Z 23002KT 02/M00 A3028 RMK A01 T00211003  RH  084%=      5-min Rain = 0
KJU1 150519Z 23002KT 02/00 A3028 RMK A01 T002300-0  RH  084%=      5-min Rain = 0
KJU1 150520Z 23002KT 02/M00 A3028 RMK A01 T00231001  RH  084%=      5-min Rain = 0
KJU1 150521Z 23002KT 02/M01 A3027 RMK A01 T00201007  RH  082%=      5-min Rain = 0
KJU1 150522Z 22002KT 02/M01 A3027 RMK A01 T00191007  RH  083%=      5-min Rain = 0
KJU1 150523Z 22001KT 02/M01 A3028 RMK A01 T00191007  RH  083%=      5-min Rain = 0
KJU1 150524Z 22000KT 02/M01 A3028 RMK A01 T00181007  RH  083%=      5-min Rain = 0
KJU1 150525Z 22001KT 02/M01 A3028 RMK A01 T00171009  RH  083%=      5-min Rain = 0
KJU1 150526Z 22001KT 02/M01 A3028 RMK A01 T00171007  RH  084%=      5-min Rain = 0
KJU1 150527Z 22001KT 02/M01 A3028 RMK A01 T00191005  RH  085%=      5-min Rain = 0
KJU1 150528Z 22000KT 02/M00 A3028 RMK A01 T00201003  RH  085%=      5-min Rain = 0
KJU1 150529Z 22000KT 02/M00 A3028 RMK A01 T00211003  RH  084%=      5-min Rain = 0
KJU1 150530Z 22000KT 02/M00 A3028 RMK A01 T00211003  RH  084%=      5-min Rain = 0
KJU1 150531Z 00000KT 02/M00 A3028 RMK A01 T00211004  RH  083%=      5-min Rain = 0
KJU1 150532Z 00000KT 02/M01 A3028 RMK A01 T00191009  RH  082%=      5-min Rain = 0
KJU1 150533Z 00000KT 02/M01 A3028 RMK A01 T00171010  RH  082%=      5-min Rain = 0
KJU1 150534Z 00000KT 02/M01 A3027 RMK A01 T00171010  RH  083%=      5-min Rain = 0
KJU1 150535Z 00000KT 02/M01 A3027 RMK A01 T00171009  RH  083%=      5-min Rain = 0
KJU1 150536Z 00000KT 02/M01 A3027 RMK A01 T00171008  RH  083%=      5-min Rain = 0
KJU1 150537Z 00000KT 02/M01 A3027 RMK A01 T00171008  RH  083%=      5-min Rain = 0
KJU1 150538Z 00000KT 02/M01 A3027 RMK A01 T00171007  RH  084%=      5-min Rain = 0
KJU1 150539Z 00000KT 02/M01 A3027 RMK A01 T00181006  RH  084%=      5-min Rain = 0
KJU1 150540Z 00000KT 02/M01 A3027 RMK A01 T00191006  RH  084%=      5-min Rain = 0
KJU1 150541Z 00000KT 02/M01 A3027 RMK A01 T00191006  RH  083%=      5-min Rain = 0
KJU1 150542Z 00000KT 02/M01 A3027 RMK A01 T00191007  RH  083%=      5-min Rain = 0
KJU1 150543Z 00000KT 02/M01 A3027 RMK A01 T00181008  RH  083%=      5-min Rain = 0
KJU1 150544Z 00000KT 02/M01 A3027 RMK A01 T00171011  RH  082%=      5-min Rain = 0
KJU1 150545Z 00000KT 01/M01 A3027 RMK A01 T00141014  RH  082%=      5-min Rain = 0
KJU1 150546Z 00000KT 01/M02 A3027 RMK A01 T00121015  RH  082%=      5-min Rain = 0
KJU1 150547Z 00000KT 01/M01 A3027 RMK A01 T00111014  RH  083%=      5-min Rain = 0
KJU1 150548Z 00000KT 01/M01 A3027 RMK A01 T00111013  RH  084%=      5-min Rain = 0
KJU1 150549Z 00000KT 01/M01 A3027 RMK A01 T00111013  RH  084%=      5-min Rain = 0
KJU1 150550Z 24000KT 01/M01 A3027 RMK A01 T00121011  RH  085%=      5-min Rain = 0
KJU1 150551Z 25001KT 01/M01 A3027 RMK A01 T00121011  RH  084%=      5-min Rain = 0
KJU1 150552Z 25001KT 01/M01 A3027 RMK A01 T00121011  RH  085%=      5-min Rain = 0
KJU1 150553Z 26001KT 01/M01 A3027 RMK A01 T00111011  RH  085%=      5-min Rain = 0
KJU1 150554Z 26001KT 01/M01 A3026 RMK A01 T00111012  RH  085%=      5-min Rain = 0
KJU1 150555Z 27001KT 01/M01 A3026 RMK A01 T00111012  RH  085%=      5-min Rain = 0
KJU1 150556Z 28002KT 01/M01 A3026 RMK A01 T00101012  RH  085%=      5-min Rain = 0
KJU1 150557Z 28001KT 01/M01 A3026 RMK A01 T00101012  RH  086%=      5-min Rain = 0
KJU1 150558Z 27001KT 01/M01 A3026 RMK A01 T00091012  RH  086%=      5-min Rain = 0
KJU1 150559Z 27001KT 01/M01 A3026 RMK A01 T00091011  RH  086%=      5-min Rain = 0

Page generated in 0.09 seconds.